<?xml version="1.0" encoding="UTF-8" standalone="no" ?>
<gpx xmlns="http://www.topografix.com/GPX/1/1" xmlns:xsi="http://www.w3.org/2001/XMLSchema-instance" xsi:schemaLocation="http://www.topografix.com/GPX/1/1 http://www.topografix.com/GPX/1/1/gpx.xsd" version="1.1" creator="VisuGPX - https://www.visugpx.com">
  <metadata>
    <name>Randonnée du 27/03/25 La Chatte Pendue depuis Salm</name>
  </metadata>
  <trk>
    <name><![CDATA[Parcours du 27/03/2025 16h52]]></name>
    <trkseg>
      <trkpt lat="48.45575" lon="7.14874">
        <ele>637.9492</ele>
        <time>2025-03-27T12:54:07Z</time>
      </trkpt>
      <trkpt lat="48.45575" lon="7.14874">
        <ele>637.96173</ele>
        <time>2025-03-27T12:54:08Z</time>
      </trkpt>
      <trkpt lat="48.45571" lon="7.1487">
        <ele>637.96173</ele>
        <time>2025-03-27T12:54:30Z</time>
      </trkpt>
      <trkpt lat="48.45567" lon="7.14867">
        <ele>637.96173</ele>
        <time>2025-03-27T12:54:36Z</time>
      </trkpt>
      <trkpt lat="48.45562" lon="7.14865">
        <ele>637.9592</ele>
        <time>2025-03-27T12:54:41Z</time>
      </trkpt>
      <trkpt lat="48.45557" lon="7.1486">
        <ele>637.96173</ele>
        <time>2025-03-27T12:54:46Z</time>
      </trkpt>
      <trkpt lat="48.45553" lon="7.14858">
        <ele>637.96173</ele>
        <time>2025-03-27T12:54:50Z</time>
      </trkpt>
      <trkpt lat="48.45549" lon="7.14853">
        <ele>637.96173</ele>
        <time>2025-03-27T12:54:54Z</time>
      </trkpt>
      <trkpt lat="48.45545" lon="7.14851">
        <ele>637.96173</ele>
        <time>2025-03-27T12:54:58Z</time>
      </trkpt>
      <trkpt lat="48.45541" lon="7.14848">
        <ele>637.96173</ele>
        <time>2025-03-27T12:55:02Z</time>
      </trkpt>
      <trkpt lat="48.45536" lon="7.14846">
        <ele>637.96173</ele>
        <time>2025-03-27T12:55:06Z</time>
      </trkpt>
      <trkpt lat="48.45532" lon="7.14841">
        <ele>637.96173</ele>
        <time>2025-03-27T12:55:10Z</time>
      </trkpt>
      <trkpt lat="48.4553" lon="7.14834">
        <ele>637.96173</ele>
        <time>2025-03-27T12:55:14Z</time>
      </trkpt>
      <trkpt lat="48.4553" lon="7.14827">
        <ele>637.96173</ele>
        <time>2025-03-27T12:55:22Z</time>
      </trkpt>
      <trkpt lat="48.45533" lon="7.14823">
        <ele>637.96173</ele>
        <time>2025-03-27T12:56:09Z</time>
      </trkpt>
      <trkpt lat="48.45536" lon="7.14815">
        <ele>637.96173</ele>
        <time>2025-03-27T12:56:12Z</time>
      </trkpt>
      <trkpt lat="48.4554" lon="7.14809">
        <ele>637.96173</ele>
        <time>2025-03-27T12:56:13Z</time>
      </trkpt>
      <trkpt lat="48.45543" lon="7.14802">
        <ele>637.96173</ele>
        <time>2025-03-27T12:56:19Z</time>
      </trkpt>
      <trkpt lat="48.45546" lon="7.14796">
        <ele>637.96173</ele>
        <time>2025-03-27T12:56:23Z</time>
      </trkpt>
      <trkpt lat="48.45551" lon="7.14794">
        <ele>637.96173</ele>
        <time>2025-03-27T12:56:28Z</time>
      </trkpt>
      <trkpt lat="48.45553" lon="7.14787">
        <ele>637.96173</ele>
        <time>2025-03-27T12:56:31Z</time>
      </trkpt>
      <trkpt lat="48.45558" lon="7.14781">
        <ele>637.96173</ele>
        <time>2025-03-27T12:56:36Z</time>
      </trkpt>
      <trkpt lat="48.45562" lon="7.14776">
        <ele>637.96173</ele>
        <time>2025-03-27T12:56:40Z</time>
      </trkpt>
      <trkpt lat="48.45566" lon="7.14772">
        <ele>637.96173</ele>
        <time>2025-03-27T12:56:44Z</time>
      </trkpt>
      <trkpt lat="48.4557" lon="7.14767">
        <ele>637.96173</ele>
        <time>2025-03-27T12:56:48Z</time>
      </trkpt>
      <trkpt lat="48.45575" lon="7.14762">
        <ele>637.96173</ele>
        <time>2025-03-27T12:56:54Z</time>
      </trkpt>
      <trkpt lat="48.45578" lon="7.14756">
        <ele>637.96173</ele>
        <time>2025-03-27T12:56:58Z</time>
      </trkpt>
      <trkpt lat="48.45582" lon="7.14755">
        <ele>637.96173</ele>
        <time>2025-03-27T12:57:01Z</time>
      </trkpt>
      <trkpt lat="48.45584" lon="7.14748">
        <ele>637.96173</ele>
        <time>2025-03-27T12:57:05Z</time>
      </trkpt>
      <trkpt lat="48.45588" lon="7.14743">
        <ele>637.96173</ele>
        <time>2025-03-27T12:57:10Z</time>
      </trkpt>
      <trkpt lat="48.45592" lon="7.14738">
        <ele>637.96173</ele>
        <time>2025-03-27T12:57:15Z</time>
      </trkpt>
      <trkpt lat="48.45595" lon="7.14733">
        <ele>637.96173</ele>
        <time>2025-03-27T12:57:19Z</time>
      </trkpt>
      <trkpt lat="48.45591" lon="7.14725">
        <ele>637.96173</ele>
        <time>2025-03-27T12:57:25Z</time>
      </trkpt>
      <trkpt lat="48.45589" lon="7.14715">
        <ele>637.96173</ele>
        <time>2025-03-27T12:57:27Z</time>
      </trkpt>
      <trkpt lat="48.45585" lon="7.14707">
        <ele>637.96173</ele>
        <time>2025-03-27T12:57:29Z</time>
      </trkpt>
      <trkpt lat="48.4558" lon="7.147">
        <ele>637.96173</ele>
        <time>2025-03-27T12:57:30Z</time>
      </trkpt>
      <trkpt lat="48.45576" lon="7.14694">
        <ele>637.96173</ele>
        <time>2025-03-27T12:57:33Z</time>
      </trkpt>
      <trkpt lat="48.45577" lon="7.14686">
        <ele>637.96173</ele>
        <time>2025-03-27T12:57:37Z</time>
      </trkpt>
      <trkpt lat="48.45577" lon="7.14677">
        <ele>637.96173</ele>
        <time>2025-03-27T12:57:41Z</time>
      </trkpt>
      <trkpt lat="48.45578" lon="7.1467">
        <ele>637.96173</ele>
        <time>2025-03-27T12:57:47Z</time>
      </trkpt>
      <trkpt lat="48.45578" lon="7.14661">
        <ele>637.96173</ele>
        <time>2025-03-27T12:57:52Z</time>
      </trkpt>
      <trkpt lat="48.45578" lon="7.14652">
        <ele>637.96173</ele>
        <time>2025-03-27T12:57:57Z</time>
      </trkpt>
      <trkpt lat="48.45579" lon="7.14645">
        <ele>637.96173</ele>
        <time>2025-03-27T12:58:02Z</time>
      </trkpt>
      <trkpt lat="48.45578" lon="7.14638">
        <ele>637.96173</ele>
        <time>2025-03-27T12:58:06Z</time>
      </trkpt>
      <trkpt lat="48.45578" lon="7.14631">
        <ele>637.96173</ele>
        <time>2025-03-27T12:58:09Z</time>
      </trkpt>
      <trkpt lat="48.45578" lon="7.14624">
        <ele>637.96173</ele>
        <time>2025-03-27T12:58:13Z</time>
      </trkpt>
      <trkpt lat="48.45579" lon="7.14617">
        <ele>637.96173</ele>
        <time>2025-03-27T12:58:18Z</time>
      </trkpt>
      <trkpt lat="48.4558" lon="7.14609">
        <ele>637.96173</ele>
        <time>2025-03-27T12:58:22Z</time>
      </trkpt>
      <trkpt lat="48.45581" lon="7.14602">
        <ele>640.03766</ele>
        <time>2025-03-27T12:58:25Z</time>
      </trkpt>
      <trkpt lat="48.45582" lon="7.14595">
        <ele>642.1135</ele>
        <time>2025-03-27T12:58:29Z</time>
      </trkpt>
      <trkpt lat="48.45583" lon="7.14588">
        <ele>644.18945</ele>
        <time>2025-03-27T12:58:34Z</time>
      </trkpt>
      <trkpt lat="48.45585" lon="7.14581">
        <ele>646.2653</ele>
        <time>2025-03-27T12:58:39Z</time>
      </trkpt>
      <trkpt lat="48.45586" lon="7.14573">
        <ele>648.34125</ele>
        <time>2025-03-27T12:58:47Z</time>
      </trkpt>
      <trkpt lat="48.45587" lon="7.14566">
        <ele>648.34125</ele>
        <time>2025-03-27T12:58:52Z</time>
      </trkpt>
      <trkpt lat="48.45589" lon="7.14559">
        <ele>648.34125</ele>
        <time>2025-03-27T12:58:57Z</time>
      </trkpt>
      <trkpt lat="48.4559" lon="7.14551">
        <ele>648.34125</ele>
        <time>2025-03-27T12:59:02Z</time>
      </trkpt>
      <trkpt lat="48.45591" lon="7.14544">
        <ele>648.34125</ele>
        <time>2025-03-27T12:59:07Z</time>
      </trkpt>
      <trkpt lat="48.45593" lon="7.14537">
        <ele>648.34125</ele>
        <time>2025-03-27T12:59:14Z</time>
      </trkpt>
      <trkpt lat="48.45594" lon="7.1453">
        <ele>648.34125</ele>
        <time>2025-03-27T12:59:19Z</time>
      </trkpt>
      <trkpt lat="48.45596" lon="7.14523">
        <ele>648.34125</ele>
        <time>2025-03-27T12:59:24Z</time>
      </trkpt>
      <trkpt lat="48.45597" lon="7.14513">
        <ele>648.34125</ele>
        <time>2025-03-27T12:59:31Z</time>
      </trkpt>
      <trkpt lat="48.45598" lon="7.14507">
        <ele>648.34125</ele>
        <time>2025-03-27T12:59:36Z</time>
      </trkpt>
      <trkpt lat="48.45599" lon="7.145">
        <ele>648.34125</ele>
        <time>2025-03-27T12:59:40Z</time>
      </trkpt>
      <trkpt lat="48.45601" lon="7.14493">
        <ele>648.34125</ele>
        <time>2025-03-27T12:59:45Z</time>
      </trkpt>
      <trkpt lat="48.45602" lon="7.14485">
        <ele>648.34125</ele>
        <time>2025-03-27T12:59:50Z</time>
      </trkpt>
      <trkpt lat="48.45603" lon="7.14478">
        <ele>648.34125</ele>
        <time>2025-03-27T12:59:55Z</time>
      </trkpt>
      <trkpt lat="48.45604" lon="7.1447">
        <ele>648.34125</ele>
        <time>2025-03-27T13:00:00Z</time>
      </trkpt>
      <trkpt lat="48.45605" lon="7.14463">
        <ele>648.34125</ele>
        <time>2025-03-27T13:00:03Z</time>
      </trkpt>
      <trkpt lat="48.45606" lon="7.14455">
        <ele>648.34125</ele>
        <time>2025-03-27T13:00:09Z</time>
      </trkpt>
      <trkpt lat="48.45606" lon="7.14447">
        <ele>648.34125</ele>
        <time>2025-03-27T13:00:14Z</time>
      </trkpt>
      <trkpt lat="48.45608" lon="7.14438">
        <ele>648.34125</ele>
        <time>2025-03-27T13:00:19Z</time>
      </trkpt>
      <trkpt lat="48.45609" lon="7.14429">
        <ele>648.34125</ele>
        <time>2025-03-27T13:00:23Z</time>
      </trkpt>
      <trkpt lat="48.4561" lon="7.14422">
        <ele>648.34125</ele>
        <time>2025-03-27T13:00:28Z</time>
      </trkpt>
      <trkpt lat="48.45611" lon="7.14413">
        <ele>648.34125</ele>
        <time>2025-03-27T13:00:34Z</time>
      </trkpt>
      <trkpt lat="48.45612" lon="7.14405">
        <ele>648.34125</ele>
        <time>2025-03-27T13:00:37Z</time>
      </trkpt>
      <trkpt lat="48.45613" lon="7.14398">
        <ele>648.34125</ele>
        <time>2025-03-27T13:00:42Z</time>
      </trkpt>
      <trkpt lat="48.45614" lon="7.14391">
        <ele>648.34125</ele>
        <time>2025-03-27T13:00:46Z</time>
      </trkpt>
      <trkpt lat="48.45615" lon="7.14383">
        <ele>648.34125</ele>
        <time>2025-03-27T13:00:51Z</time>
      </trkpt>
      <trkpt lat="48.45615" lon="7.14375">
        <ele>648.34125</ele>
        <time>2025-03-27T13:00:56Z</time>
      </trkpt>
      <trkpt lat="48.45616" lon="7.14367">
        <ele>648.34125</ele>
        <time>2025-03-27T13:01:01Z</time>
      </trkpt>
      <trkpt lat="48.45616" lon="7.1436">
        <ele>648.34125</ele>
        <time>2025-03-27T13:01:05Z</time>
      </trkpt>
      <trkpt lat="48.45617" lon="7.14352">
        <ele>648.34125</ele>
        <time>2025-03-27T13:01:10Z</time>
      </trkpt>
      <trkpt lat="48.45617" lon="7.14344">
        <ele>648.34125</ele>
        <time>2025-03-27T13:01:14Z</time>
      </trkpt>
      <trkpt lat="48.45617" lon="7.14336">
        <ele>648.34125</ele>
        <time>2025-03-27T13:01:19Z</time>
      </trkpt>
      <trkpt lat="48.45618" lon="7.14327">
        <ele>648.34125</ele>
        <time>2025-03-27T13:01:24Z</time>
      </trkpt>
      <trkpt lat="48.45618" lon="7.14319">
        <ele>648.34125</ele>
        <time>2025-03-27T13:01:29Z</time>
      </trkpt>
      <trkpt lat="48.45618" lon="7.14312">
        <ele>648.34125</ele>
        <time>2025-03-27T13:01:34Z</time>
      </trkpt>
      <trkpt lat="48.45618" lon="7.14304">
        <ele>648.34125</ele>
        <time>2025-03-27T13:01:38Z</time>
      </trkpt>
      <trkpt lat="48.45618" lon="7.14296">
        <ele>648.34125</ele>
        <time>2025-03-27T13:01:44Z</time>
      </trkpt>
      <trkpt lat="48.45618" lon="7.14289">
        <ele>648.34125</ele>
        <time>2025-03-27T13:01:50Z</time>
      </trkpt>
      <trkpt lat="48.45618" lon="7.14282">
        <ele>648.34125</ele>
        <time>2025-03-27T13:01:54Z</time>
      </trkpt>
      <trkpt lat="48.45618" lon="7.14271">
        <ele>648.34125</ele>
        <time>2025-03-27T13:01:59Z</time>
      </trkpt>
      <trkpt lat="48.45617" lon="7.14263">
        <ele>648.34125</ele>
        <time>2025-03-27T13:02:06Z</time>
      </trkpt>
      <trkpt lat="48.45617" lon="7.14254">
        <ele>648.34125</ele>
        <time>2025-03-27T13:02:11Z</time>
      </trkpt>
      <trkpt lat="48.45617" lon="7.14247">
        <ele>648.34125</ele>
        <time>2025-03-27T13:02:18Z</time>
      </trkpt>
      <trkpt lat="48.45616" lon="7.1424">
        <ele>648.34125</ele>
        <time>2025-03-27T13:02:21Z</time>
      </trkpt>
      <trkpt lat="48.45615" lon="7.14232">
        <ele>648.34125</ele>
        <time>2025-03-27T13:02:26Z</time>
      </trkpt>
      <trkpt lat="48.45614" lon="7.14223">
        <ele>648.34125</ele>
        <time>2025-03-27T13:02:30Z</time>
      </trkpt>
      <trkpt lat="48.45614" lon="7.14216">
        <ele>648.34125</ele>
        <time>2025-03-27T13:02:36Z</time>
      </trkpt>
      <trkpt lat="48.45614" lon="7.14209">
        <ele>648.34125</ele>
        <time>2025-03-27T13:02:41Z</time>
      </trkpt>
      <trkpt lat="48.45613" lon="7.14202">
        <ele>648.34125</ele>
        <time>2025-03-27T13:02:45Z</time>
      </trkpt>
      <trkpt lat="48.45612" lon="7.14194">
        <ele>648.34125</ele>
        <time>2025-03-27T13:02:50Z</time>
      </trkpt>
      <trkpt lat="48.4561" lon="7.14186">
        <ele>648.34125</ele>
        <time>2025-03-27T13:02:56Z</time>
      </trkpt>
      <trkpt lat="48.4561" lon="7.14177">
        <ele>648.34125</ele>
        <time>2025-03-27T13:03:01Z</time>
      </trkpt>
      <trkpt lat="48.45609" lon="7.1417">
        <ele>648.34125</ele>
        <time>2025-03-27T13:03:05Z</time>
      </trkpt>
      <trkpt lat="48.45606" lon="7.14163">
        <ele>648.34125</ele>
        <time>2025-03-27T13:03:11Z</time>
      </trkpt>
      <trkpt lat="48.45606" lon="7.14155">
        <ele>648.34125</ele>
        <time>2025-03-27T13:03:16Z</time>
      </trkpt>
      <trkpt lat="48.45604" lon="7.14146">
        <ele>648.34125</ele>
        <time>2025-03-27T13:03:21Z</time>
      </trkpt>
      <trkpt lat="48.45602" lon="7.14138">
        <ele>648.34125</ele>
        <time>2025-03-27T13:03:28Z</time>
      </trkpt>
      <trkpt lat="48.45601" lon="7.1413">
        <ele>648.34125</ele>
        <time>2025-03-27T13:03:32Z</time>
      </trkpt>
      <trkpt lat="48.45599" lon="7.14124">
        <ele>648.34125</ele>
        <time>2025-03-27T13:03:35Z</time>
      </trkpt>
      <trkpt lat="48.45597" lon="7.14117">
        <ele>651.0401</ele>
        <time>2025-03-27T13:03:42Z</time>
      </trkpt>
      <trkpt lat="48.45595" lon="7.1411">
        <ele>653.73895</ele>
        <time>2025-03-27T13:03:47Z</time>
      </trkpt>
      <trkpt lat="48.45593" lon="7.14101">
        <ele>656.4378</ele>
        <time>2025-03-27T13:03:53Z</time>
      </trkpt>
      <trkpt lat="48.45591" lon="7.14094">
        <ele>659.13666</ele>
        <time>2025-03-27T13:03:58Z</time>
      </trkpt>
      <trkpt lat="48.45589" lon="7.14086">
        <ele>661.8355</ele>
        <time>2025-03-27T13:04:04Z</time>
      </trkpt>
      <trkpt lat="48.45587" lon="7.14079">
        <ele>661.8355</ele>
        <time>2025-03-27T13:04:09Z</time>
      </trkpt>
      <trkpt lat="48.45585" lon="7.14071">
        <ele>661.8355</ele>
        <time>2025-03-27T13:04:15Z</time>
      </trkpt>
      <trkpt lat="48.45583" lon="7.14065">
        <ele>661.8355</ele>
        <time>2025-03-27T13:04:19Z</time>
      </trkpt>
      <trkpt lat="48.4558" lon="7.14058">
        <ele>661.8355</ele>
        <time>2025-03-27T13:04:23Z</time>
      </trkpt>
      <trkpt lat="48.45578" lon="7.14051">
        <ele>661.8355</ele>
        <time>2025-03-27T13:04:26Z</time>
      </trkpt>
      <trkpt lat="48.45576" lon="7.14045">
        <ele>661.8355</ele>
        <time>2025-03-27T13:04:32Z</time>
      </trkpt>
      <trkpt lat="48.45574" lon="7.14039">
        <ele>661.8355</ele>
        <time>2025-03-27T13:04:36Z</time>
      </trkpt>
      <trkpt lat="48.45572" lon="7.14032">
        <ele>661.8355</ele>
        <time>2025-03-27T13:04:41Z</time>
      </trkpt>
      <trkpt lat="48.45569" lon="7.14024">
        <ele>661.8355</ele>
        <time>2025-03-27T13:04:47Z</time>
      </trkpt>
      <trkpt lat="48.45566" lon="7.14018">
        <ele>663.8358</ele>
        <time>2025-03-27T13:04:52Z</time>
      </trkpt>
      <trkpt lat="48.45565" lon="7.14011">
        <ele>665.8361</ele>
        <time>2025-03-27T13:04:57Z</time>
      </trkpt>
      <trkpt lat="48.45562" lon="7.14005">
        <ele>667.83636</ele>
        <time>2025-03-27T13:05:02Z</time>
      </trkpt>
      <trkpt lat="48.45558" lon="7.13998">
        <ele>669.8367</ele>
        <time>2025-03-27T13:05:08Z</time>
      </trkpt>
      <trkpt lat="48.45556" lon="7.13992">
        <ele>671.837</ele>
        <time>2025-03-27T13:05:14Z</time>
      </trkpt>
      <trkpt lat="48.45553" lon="7.13985">
        <ele>671.837</ele>
        <time>2025-03-27T13:05:20Z</time>
      </trkpt>
      <trkpt lat="48.45551" lon="7.13979">
        <ele>671.837</ele>
        <time>2025-03-27T13:05:24Z</time>
      </trkpt>
      <trkpt lat="48.45548" lon="7.13973">
        <ele>671.837</ele>
        <time>2025-03-27T13:05:29Z</time>
      </trkpt>
      <trkpt lat="48.45545" lon="7.13967">
        <ele>671.837</ele>
        <time>2025-03-27T13:05:34Z</time>
      </trkpt>
      <trkpt lat="48.45542" lon="7.1396">
        <ele>671.837</ele>
        <time>2025-03-27T13:05:39Z</time>
      </trkpt>
      <trkpt lat="48.45539" lon="7.13954">
        <ele>671.837</ele>
        <time>2025-03-27T13:05:44Z</time>
      </trkpt>
      <trkpt lat="48.45536" lon="7.13947">
        <ele>671.837</ele>
        <time>2025-03-27T13:05:49Z</time>
      </trkpt>
      <trkpt lat="48.45533" lon="7.1394">
        <ele>671.837</ele>
        <time>2025-03-27T13:05:55Z</time>
      </trkpt>
      <trkpt lat="48.4553" lon="7.13934">
        <ele>671.837</ele>
        <time>2025-03-27T13:06:00Z</time>
      </trkpt>
      <trkpt lat="48.45527" lon="7.13928">
        <ele>671.837</ele>
        <time>2025-03-27T13:06:05Z</time>
      </trkpt>
      <trkpt lat="48.45524" lon="7.13922">
        <ele>671.837</ele>
        <time>2025-03-27T13:06:11Z</time>
      </trkpt>
      <trkpt lat="48.45522" lon="7.13916">
        <ele>671.837</ele>
        <time>2025-03-27T13:06:16Z</time>
      </trkpt>
      <trkpt lat="48.45519" lon="7.1391">
        <ele>671.837</ele>
        <time>2025-03-27T13:06:21Z</time>
      </trkpt>
      <trkpt lat="48.45515" lon="7.13903">
        <ele>671.837</ele>
        <time>2025-03-27T13:06:25Z</time>
      </trkpt>
      <trkpt lat="48.45512" lon="7.13897">
        <ele>671.837</ele>
        <time>2025-03-27T13:06:30Z</time>
      </trkpt>
      <trkpt lat="48.45509" lon="7.13892">
        <ele>673.8964</ele>
        <time>2025-03-27T13:06:34Z</time>
      </trkpt>
      <trkpt lat="48.45506" lon="7.13886">
        <ele>675.9559</ele>
        <time>2025-03-27T13:06:39Z</time>
      </trkpt>
      <trkpt lat="48.45503" lon="7.13879">
        <ele>678.0154</ele>
        <time>2025-03-27T13:06:44Z</time>
      </trkpt>
      <trkpt lat="48.45499" lon="7.13873">
        <ele>680.0748</ele>
        <time>2025-03-27T13:06:49Z</time>
      </trkpt>
      <trkpt lat="48.45495" lon="7.13867">
        <ele>682.1343</ele>
        <time>2025-03-27T13:06:54Z</time>
      </trkpt>
      <trkpt lat="48.45492" lon="7.13861">
        <ele>682.1343</ele>
        <time>2025-03-27T13:06:59Z</time>
      </trkpt>
      <trkpt lat="48.45489" lon="7.13856">
        <ele>682.1343</ele>
        <time>2025-03-27T13:07:03Z</time>
      </trkpt>
      <trkpt lat="48.45485" lon="7.13851">
        <ele>682.1343</ele>
        <time>2025-03-27T13:07:08Z</time>
      </trkpt>
      <trkpt lat="48.45482" lon="7.13845">
        <ele>682.1343</ele>
        <time>2025-03-27T13:07:13Z</time>
      </trkpt>
      <trkpt lat="48.45478" lon="7.1384">
        <ele>682.1343</ele>
        <time>2025-03-27T13:07:18Z</time>
      </trkpt>
      <trkpt lat="48.45474" lon="7.13834">
        <ele>682.1343</ele>
        <time>2025-03-27T13:07:23Z</time>
      </trkpt>
      <trkpt lat="48.45471" lon="7.13828">
        <ele>682.1343</ele>
        <time>2025-03-27T13:07:28Z</time>
      </trkpt>
      <trkpt lat="48.45467" lon="7.13823">
        <ele>682.1343</ele>
        <time>2025-03-27T13:07:33Z</time>
      </trkpt>
      <trkpt lat="48.45464" lon="7.13817">
        <ele>682.1343</ele>
        <time>2025-03-27T13:07:38Z</time>
      </trkpt>
      <trkpt lat="48.4546" lon="7.13811">
        <ele>682.1343</ele>
        <time>2025-03-27T13:07:43Z</time>
      </trkpt>
      <trkpt lat="48.45456" lon="7.13806">
        <ele>682.1343</ele>
        <time>2025-03-27T13:07:47Z</time>
      </trkpt>
      <trkpt lat="48.45453" lon="7.13801">
        <ele>682.1343</ele>
        <time>2025-03-27T13:07:52Z</time>
      </trkpt>
      <trkpt lat="48.45449" lon="7.13795">
        <ele>682.1343</ele>
        <time>2025-03-27T13:07:57Z</time>
      </trkpt>
      <trkpt lat="48.45445" lon="7.1379">
        <ele>682.1343</ele>
        <time>2025-03-27T13:08:02Z</time>
      </trkpt>
      <trkpt lat="48.45441" lon="7.13785">
        <ele>682.1343</ele>
        <time>2025-03-27T13:08:07Z</time>
      </trkpt>
      <trkpt lat="48.45438" lon="7.1378">
        <ele>682.1343</ele>
        <time>2025-03-27T13:08:12Z</time>
      </trkpt>
      <trkpt lat="48.45434" lon="7.13776">
        <ele>682.1343</ele>
        <time>2025-03-27T13:08:18Z</time>
      </trkpt>
      <trkpt lat="48.4543" lon="7.13771">
        <ele>682.1343</ele>
        <time>2025-03-27T13:08:23Z</time>
      </trkpt>
      <trkpt lat="48.45427" lon="7.13766">
        <ele>682.1343</ele>
        <time>2025-03-27T13:08:28Z</time>
      </trkpt>
      <trkpt lat="48.45422" lon="7.13761">
        <ele>682.1343</ele>
        <time>2025-03-27T13:08:33Z</time>
      </trkpt>
      <trkpt lat="48.45419" lon="7.13756">
        <ele>682.1343</ele>
        <time>2025-03-27T13:08:37Z</time>
      </trkpt>
      <trkpt lat="48.45415" lon="7.13752">
        <ele>684.1658</ele>
        <time>2025-03-27T13:08:42Z</time>
      </trkpt>
      <trkpt lat="48.45411" lon="7.13747">
        <ele>686.1972</ele>
        <time>2025-03-27T13:08:47Z</time>
      </trkpt>
      <trkpt lat="48.45407" lon="7.13743">
        <ele>688.2287</ele>
        <time>2025-03-27T13:08:51Z</time>
      </trkpt>
      <trkpt lat="48.45403" lon="7.13739">
        <ele>690.26013</ele>
        <time>2025-03-27T13:08:56Z</time>
      </trkpt>
      <trkpt lat="48.45398" lon="7.13735">
        <ele>692.2916</ele>
        <time>2025-03-27T13:09:01Z</time>
      </trkpt>
      <trkpt lat="48.45394" lon="7.13731">
        <ele>692.2916</ele>
        <time>2025-03-27T13:09:06Z</time>
      </trkpt>
      <trkpt lat="48.45389" lon="7.13726">
        <ele>692.2916</ele>
        <time>2025-03-27T13:09:11Z</time>
      </trkpt>
      <trkpt lat="48.45393" lon="7.1373">
        <ele>692.2916</ele>
        <time>2025-03-27T13:10:52Z</time>
      </trkpt>
      <trkpt lat="48.4539" lon="7.13737">
        <ele>692.2916</ele>
        <time>2025-03-27T13:11:36Z</time>
      </trkpt>
      <trkpt lat="48.45389" lon="7.1373">
        <ele>692.2916</ele>
        <time>2025-03-27T13:12:29Z</time>
      </trkpt>
      <trkpt lat="48.45386" lon="7.13723">
        <ele>692.2916</ele>
        <time>2025-03-27T13:12:33Z</time>
      </trkpt>
      <trkpt lat="48.45382" lon="7.13719">
        <ele>692.2916</ele>
        <time>2025-03-27T13:12:37Z</time>
      </trkpt>
      <trkpt lat="48.45377" lon="7.13715">
        <ele>692.2916</ele>
        <time>2025-03-27T13:12:43Z</time>
      </trkpt>
      <trkpt lat="48.45372" lon="7.13712">
        <ele>692.2916</ele>
        <time>2025-03-27T13:12:49Z</time>
      </trkpt>
      <trkpt lat="48.45367" lon="7.13707">
        <ele>692.2916</ele>
        <time>2025-03-27T13:12:55Z</time>
      </trkpt>
      <trkpt lat="48.45363" lon="7.13704">
        <ele>692.2916</ele>
        <time>2025-03-27T13:13:00Z</time>
      </trkpt>
      <trkpt lat="48.45358" lon="7.137">
        <ele>692.2916</ele>
        <time>2025-03-27T13:13:05Z</time>
      </trkpt>
      <trkpt lat="48.45354" lon="7.13696">
        <ele>692.2916</ele>
        <time>2025-03-27T13:13:10Z</time>
      </trkpt>
      <trkpt lat="48.45349" lon="7.13693">
        <ele>692.2916</ele>
        <time>2025-03-27T13:13:16Z</time>
      </trkpt>
      <trkpt lat="48.45344" lon="7.13689">
        <ele>692.2916</ele>
        <time>2025-03-27T13:13:20Z</time>
      </trkpt>
      <trkpt lat="48.4534" lon="7.13686">
        <ele>692.2916</ele>
        <time>2025-03-27T13:13:26Z</time>
      </trkpt>
      <trkpt lat="48.45335" lon="7.13682">
        <ele>692.2916</ele>
        <time>2025-03-27T13:13:30Z</time>
      </trkpt>
      <trkpt lat="48.45331" lon="7.13679">
        <ele>692.2916</ele>
        <time>2025-03-27T13:13:35Z</time>
      </trkpt>
      <trkpt lat="48.45327" lon="7.13676">
        <ele>692.2916</ele>
        <time>2025-03-27T13:13:39Z</time>
      </trkpt>
      <trkpt lat="48.45323" lon="7.13673">
        <ele>692.2916</ele>
        <time>2025-03-27T13:13:43Z</time>
      </trkpt>
      <trkpt lat="48.45319" lon="7.1367">
        <ele>692.2916</ele>
        <time>2025-03-27T13:13:48Z</time>
      </trkpt>
      <trkpt lat="48.45314" lon="7.13667">
        <ele>692.2916</ele>
        <time>2025-03-27T13:13:53Z</time>
      </trkpt>
      <trkpt lat="48.4531" lon="7.13664">
        <ele>692.2916</ele>
        <time>2025-03-27T13:13:58Z</time>
      </trkpt>
      <trkpt lat="48.45306" lon="7.1366">
        <ele>692.2916</ele>
        <time>2025-03-27T13:14:01Z</time>
      </trkpt>
      <trkpt lat="48.45301" lon="7.13657">
        <ele>692.2916</ele>
        <time>2025-03-27T13:14:06Z</time>
      </trkpt>
      <trkpt lat="48.45297" lon="7.13653">
        <ele>692.2916</ele>
        <time>2025-03-27T13:14:11Z</time>
      </trkpt>
      <trkpt lat="48.45293" lon="7.13649">
        <ele>692.2916</ele>
        <time>2025-03-27T13:14:15Z</time>
      </trkpt>
      <trkpt lat="48.45288" lon="7.13646">
        <ele>692.2916</ele>
        <time>2025-03-27T13:14:21Z</time>
      </trkpt>
      <trkpt lat="48.45283" lon="7.13642">
        <ele>692.2916</ele>
        <time>2025-03-27T13:14:26Z</time>
      </trkpt>
      <trkpt lat="48.45279" lon="7.13638">
        <ele>692.2916</ele>
        <time>2025-03-27T13:14:31Z</time>
      </trkpt>
      <trkpt lat="48.45274" lon="7.13634">
        <ele>694.3561</ele>
        <time>2025-03-27T13:14:37Z</time>
      </trkpt>
      <trkpt lat="48.4527" lon="7.1363">
        <ele>696.42053</ele>
        <time>2025-03-27T13:14:41Z</time>
      </trkpt>
      <trkpt lat="48.45265" lon="7.13626">
        <ele>698.4849</ele>
        <time>2025-03-27T13:14:47Z</time>
      </trkpt>
      <trkpt lat="48.45261" lon="7.13622">
        <ele>700.5494</ele>
        <time>2025-03-27T13:14:52Z</time>
      </trkpt>
      <trkpt lat="48.45257" lon="7.13619">
        <ele>702.61383</ele>
        <time>2025-03-27T13:14:57Z</time>
      </trkpt>
      <trkpt lat="48.45252" lon="7.13615">
        <ele>702.61383</ele>
        <time>2025-03-27T13:15:02Z</time>
      </trkpt>
      <trkpt lat="48.45248" lon="7.13611">
        <ele>702.61383</ele>
        <time>2025-03-27T13:15:06Z</time>
      </trkpt>
      <trkpt lat="48.45244" lon="7.13608">
        <ele>702.61383</ele>
        <time>2025-03-27T13:15:12Z</time>
      </trkpt>
      <trkpt lat="48.45239" lon="7.13603">
        <ele>702.61383</ele>
        <time>2025-03-27T13:15:16Z</time>
      </trkpt>
      <trkpt lat="48.45234" lon="7.136">
        <ele>702.61383</ele>
        <time>2025-03-27T13:15:22Z</time>
      </trkpt>
      <trkpt lat="48.45229" lon="7.13596">
        <ele>702.61383</ele>
        <time>2025-03-27T13:15:27Z</time>
      </trkpt>
      <trkpt lat="48.45225" lon="7.13593">
        <ele>702.61383</ele>
        <time>2025-03-27T13:15:31Z</time>
      </trkpt>
      <trkpt lat="48.4522" lon="7.13589">
        <ele>702.61383</ele>
        <time>2025-03-27T13:15:37Z</time>
      </trkpt>
      <trkpt lat="48.45216" lon="7.13585">
        <ele>702.61383</ele>
        <time>2025-03-27T13:15:42Z</time>
      </trkpt>
      <trkpt lat="48.45213" lon="7.1358">
        <ele>702.61383</ele>
        <time>2025-03-27T13:15:48Z</time>
      </trkpt>
      <trkpt lat="48.45208" lon="7.13577">
        <ele>702.61383</ele>
        <time>2025-03-27T13:15:52Z</time>
      </trkpt>
      <trkpt lat="48.45205" lon="7.13573">
        <ele>702.61383</ele>
        <time>2025-03-27T13:15:57Z</time>
      </trkpt>
      <trkpt lat="48.452" lon="7.13569">
        <ele>702.61383</ele>
        <time>2025-03-27T13:16:02Z</time>
      </trkpt>
      <trkpt lat="48.45195" lon="7.13564">
        <ele>704.69885</ele>
        <time>2025-03-27T13:16:08Z</time>
      </trkpt>
      <trkpt lat="48.45191" lon="7.1356">
        <ele>706.7838</ele>
        <time>2025-03-27T13:16:14Z</time>
      </trkpt>
      <trkpt lat="48.45187" lon="7.13555">
        <ele>708.86884</ele>
        <time>2025-03-27T13:16:19Z</time>
      </trkpt>
      <trkpt lat="48.45183" lon="7.13551">
        <ele>710.9538</ele>
        <time>2025-03-27T13:16:23Z</time>
      </trkpt>
      <trkpt lat="48.45179" lon="7.13547">
        <ele>713.0388</ele>
        <time>2025-03-27T13:16:28Z</time>
      </trkpt>
      <trkpt lat="48.45176" lon="7.13543">
        <ele>713.0388</ele>
        <time>2025-03-27T13:16:33Z</time>
      </trkpt>
      <trkpt lat="48.45171" lon="7.13537">
        <ele>713.0388</ele>
        <time>2025-03-27T13:16:39Z</time>
      </trkpt>
      <trkpt lat="48.45167" lon="7.13533">
        <ele>713.0388</ele>
        <time>2025-03-27T13:16:47Z</time>
      </trkpt>
      <trkpt lat="48.45164" lon="7.13529">
        <ele>713.0388</ele>
        <time>2025-03-27T13:16:52Z</time>
      </trkpt>
      <trkpt lat="48.4516" lon="7.13524">
        <ele>713.0388</ele>
        <time>2025-03-27T13:16:57Z</time>
      </trkpt>
      <trkpt lat="48.45157" lon="7.1352">
        <ele>713.0388</ele>
        <time>2025-03-27T13:17:01Z</time>
      </trkpt>
      <trkpt lat="48.45153" lon="7.13514">
        <ele>713.0388</ele>
        <time>2025-03-27T13:17:05Z</time>
      </trkpt>
      <trkpt lat="48.4515" lon="7.13509">
        <ele>713.0388</ele>
        <time>2025-03-27T13:17:09Z</time>
      </trkpt>
      <trkpt lat="48.45146" lon="7.13503">
        <ele>713.0388</ele>
        <time>2025-03-27T13:17:15Z</time>
      </trkpt>
      <trkpt lat="48.45142" lon="7.13498">
        <ele>713.0388</ele>
        <time>2025-03-27T13:17:19Z</time>
      </trkpt>
      <trkpt lat="48.45138" lon="7.13494">
        <ele>713.0388</ele>
        <time>2025-03-27T13:17:25Z</time>
      </trkpt>
      <trkpt lat="48.45134" lon="7.13489">
        <ele>713.0388</ele>
        <time>2025-03-27T13:17:29Z</time>
      </trkpt>
      <trkpt lat="48.45131" lon="7.13484">
        <ele>713.0388</ele>
        <time>2025-03-27T13:17:34Z</time>
      </trkpt>
      <trkpt lat="48.45128" lon="7.13479">
        <ele>713.0388</ele>
        <time>2025-03-27T13:17:39Z</time>
      </trkpt>
      <trkpt lat="48.45124" lon="7.13474">
        <ele>713.0388</ele>
        <time>2025-03-27T13:17:45Z</time>
      </trkpt>
      <trkpt lat="48.4512" lon="7.1347">
        <ele>713.0388</ele>
        <time>2025-03-27T13:17:53Z</time>
      </trkpt>
      <trkpt lat="48.45116" lon="7.13465">
        <ele>713.0388</ele>
        <time>2025-03-27T13:18:09Z</time>
      </trkpt>
      <trkpt lat="48.45112" lon="7.1346">
        <ele>713.0388</ele>
        <time>2025-03-27T13:18:15Z</time>
      </trkpt>
      <trkpt lat="48.45106" lon="7.13458">
        <ele>713.0388</ele>
        <time>2025-03-27T13:18:20Z</time>
      </trkpt>
      <trkpt lat="48.45102" lon="7.13455">
        <ele>713.0388</ele>
        <time>2025-03-27T13:18:24Z</time>
      </trkpt>
      <trkpt lat="48.45098" lon="7.1345">
        <ele>713.0388</ele>
        <time>2025-03-27T13:18:30Z</time>
      </trkpt>
      <trkpt lat="48.45094" lon="7.13445">
        <ele>715.1421</ele>
        <time>2025-03-27T13:18:33Z</time>
      </trkpt>
      <trkpt lat="48.45091" lon="7.13441">
        <ele>717.24536</ele>
        <time>2025-03-27T13:18:38Z</time>
      </trkpt>
      <trkpt lat="48.45086" lon="7.13438">
        <ele>719.34863</ele>
        <time>2025-03-27T13:18:46Z</time>
      </trkpt>
      <trkpt lat="48.45082" lon="7.13433">
        <ele>721.4519</ele>
        <time>2025-03-27T13:18:52Z</time>
      </trkpt>
      <trkpt lat="48.45078" lon="7.13427">
        <ele>723.5552</ele>
        <time>2025-03-27T13:18:57Z</time>
      </trkpt>
      <trkpt lat="48.45075" lon="7.13424">
        <ele>723.5552</ele>
        <time>2025-03-27T13:19:02Z</time>
      </trkpt>
      <trkpt lat="48.4507" lon="7.1342">
        <ele>723.5552</ele>
        <time>2025-03-27T13:19:06Z</time>
      </trkpt>
      <trkpt lat="48.45067" lon="7.13416">
        <ele>723.5552</ele>
        <time>2025-03-27T13:19:11Z</time>
      </trkpt>
      <trkpt lat="48.45062" lon="7.13412">
        <ele>723.5552</ele>
        <time>2025-03-27T13:19:17Z</time>
      </trkpt>
      <trkpt lat="48.45058" lon="7.13406">
        <ele>723.5552</ele>
        <time>2025-03-27T13:19:23Z</time>
      </trkpt>
      <trkpt lat="48.45054" lon="7.13405">
        <ele>723.5552</ele>
        <time>2025-03-27T13:19:27Z</time>
      </trkpt>
      <trkpt lat="48.45049" lon="7.13402">
        <ele>723.5552</ele>
        <time>2025-03-27T13:19:33Z</time>
      </trkpt>
      <trkpt lat="48.45044" lon="7.13401">
        <ele>723.5552</ele>
        <time>2025-03-27T13:19:38Z</time>
      </trkpt>
      <trkpt lat="48.45041" lon="7.13395">
        <ele>723.5552</ele>
        <time>2025-03-27T13:19:41Z</time>
      </trkpt>
      <trkpt lat="48.45036" lon="7.13393">
        <ele>723.5552</ele>
        <time>2025-03-27T13:20:01Z</time>
      </trkpt>
      <trkpt lat="48.45037" lon="7.13386">
        <ele>723.5552</ele>
        <time>2025-03-27T13:20:57Z</time>
      </trkpt>
      <trkpt lat="48.45032" lon="7.13386">
        <ele>723.5552</ele>
        <time>2025-03-27T13:21:42Z</time>
      </trkpt>
      <trkpt lat="48.45029" lon="7.13379">
        <ele>723.5552</ele>
        <time>2025-03-27T13:21:50Z</time>
      </trkpt>
      <trkpt lat="48.45025" lon="7.13376">
        <ele>723.5552</ele>
        <time>2025-03-27T13:21:58Z</time>
      </trkpt>
      <trkpt lat="48.45021" lon="7.13372">
        <ele>723.5552</ele>
        <time>2025-03-27T13:22:03Z</time>
      </trkpt>
      <trkpt lat="48.45017" lon="7.13367">
        <ele>723.5552</ele>
        <time>2025-03-27T13:22:09Z</time>
      </trkpt>
      <trkpt lat="48.45012" lon="7.13362">
        <ele>725.5939</ele>
        <time>2025-03-27T13:22:15Z</time>
      </trkpt>
      <trkpt lat="48.45007" lon="7.13358">
        <ele>727.6325</ele>
        <time>2025-03-27T13:22:20Z</time>
      </trkpt>
      <trkpt lat="48.45003" lon="7.13354">
        <ele>729.6712</ele>
        <time>2025-03-27T13:22:25Z</time>
      </trkpt>
      <trkpt lat="48.44999" lon="7.1335">
        <ele>731.70984</ele>
        <time>2025-03-27T13:22:29Z</time>
      </trkpt>
      <trkpt lat="48.44995" lon="7.13348">
        <ele>733.74854</ele>
        <time>2025-03-27T13:22:34Z</time>
      </trkpt>
      <trkpt lat="48.44991" lon="7.13343">
        <ele>733.74854</ele>
        <time>2025-03-27T13:22:39Z</time>
      </trkpt>
      <trkpt lat="48.44988" lon="7.13338">
        <ele>733.74854</ele>
        <time>2025-03-27T13:22:44Z</time>
      </trkpt>
      <trkpt lat="48.44983" lon="7.13336">
        <ele>733.74854</ele>
        <time>2025-03-27T13:22:50Z</time>
      </trkpt>
      <trkpt lat="48.44978" lon="7.13332">
        <ele>733.74854</ele>
        <time>2025-03-27T13:22:54Z</time>
      </trkpt>
      <trkpt lat="48.44973" lon="7.13332">
        <ele>733.74854</ele>
        <time>2025-03-27T13:22:58Z</time>
      </trkpt>
      <trkpt lat="48.44969" lon="7.13328">
        <ele>733.74854</ele>
        <time>2025-03-27T13:23:05Z</time>
      </trkpt>
      <trkpt lat="48.44964" lon="7.13327">
        <ele>733.74854</ele>
        <time>2025-03-27T13:23:09Z</time>
      </trkpt>
      <trkpt lat="48.44959" lon="7.13324">
        <ele>733.74854</ele>
        <time>2025-03-27T13:23:14Z</time>
      </trkpt>
      <trkpt lat="48.44955" lon="7.13322">
        <ele>733.74854</ele>
        <time>2025-03-27T13:23:19Z</time>
      </trkpt>
      <trkpt lat="48.44951" lon="7.1332">
        <ele>733.74854</ele>
        <time>2025-03-27T13:23:25Z</time>
      </trkpt>
      <trkpt lat="48.44945" lon="7.13318">
        <ele>733.74854</ele>
        <time>2025-03-27T13:23:30Z</time>
      </trkpt>
      <trkpt lat="48.44941" lon="7.1332">
        <ele>733.74854</ele>
        <time>2025-03-27T13:23:34Z</time>
      </trkpt>
      <trkpt lat="48.44935" lon="7.13319">
        <ele>733.74854</ele>
        <time>2025-03-27T13:23:39Z</time>
      </trkpt>
      <trkpt lat="48.4493" lon="7.13319">
        <ele>733.74854</ele>
        <time>2025-03-27T13:23:45Z</time>
      </trkpt>
      <trkpt lat="48.44925" lon="7.1332">
        <ele>733.74854</ele>
        <time>2025-03-27T13:23:50Z</time>
      </trkpt>
      <trkpt lat="48.4492" lon="7.1332">
        <ele>733.74854</ele>
        <time>2025-03-27T13:23:56Z</time>
      </trkpt>
      <trkpt lat="48.44915" lon="7.13321">
        <ele>733.74854</ele>
        <time>2025-03-27T13:24:01Z</time>
      </trkpt>
      <trkpt lat="48.44909" lon="7.13322">
        <ele>733.74854</ele>
        <time>2025-03-27T13:24:07Z</time>
      </trkpt>
      <trkpt lat="48.44904" lon="7.13321">
        <ele>733.74854</ele>
        <time>2025-03-27T13:24:12Z</time>
      </trkpt>
      <trkpt lat="48.44899" lon="7.1332">
        <ele>735.8476</ele>
        <time>2025-03-27T13:24:17Z</time>
      </trkpt>
      <trkpt lat="48.44894" lon="7.13318">
        <ele>737.94666</ele>
        <time>2025-03-27T13:24:23Z</time>
      </trkpt>
      <trkpt lat="48.4489" lon="7.13315">
        <ele>740.04565</ele>
        <time>2025-03-27T13:24:27Z</time>
      </trkpt>
      <trkpt lat="48.44887" lon="7.13309">
        <ele>742.1447</ele>
        <time>2025-03-27T13:24:33Z</time>
      </trkpt>
      <trkpt lat="48.44883" lon="7.1331">
        <ele>744.2438</ele>
        <time>2025-03-27T13:24:36Z</time>
      </trkpt>
      <trkpt lat="48.44878" lon="7.13304">
        <ele>744.2438</ele>
        <time>2025-03-27T13:24:40Z</time>
      </trkpt>
      <trkpt lat="48.44874" lon="7.13299">
        <ele>744.2438</ele>
        <time>2025-03-27T13:24:47Z</time>
      </trkpt>
      <trkpt lat="48.4487" lon="7.13294">
        <ele>744.2438</ele>
        <time>2025-03-27T13:24:52Z</time>
      </trkpt>
      <trkpt lat="48.44866" lon="7.1329">
        <ele>744.2438</ele>
        <time>2025-03-27T13:24:57Z</time>
      </trkpt>
      <trkpt lat="48.44862" lon="7.13286">
        <ele>744.2438</ele>
        <time>2025-03-27T13:25:02Z</time>
      </trkpt>
      <trkpt lat="48.44858" lon="7.13282">
        <ele>744.2438</ele>
        <time>2025-03-27T13:25:06Z</time>
      </trkpt>
      <trkpt lat="48.44854" lon="7.13278">
        <ele>744.2438</ele>
        <time>2025-03-27T13:25:11Z</time>
      </trkpt>
      <trkpt lat="48.44849" lon="7.13273">
        <ele>744.2438</ele>
        <time>2025-03-27T13:25:16Z</time>
      </trkpt>
      <trkpt lat="48.44845" lon="7.1327">
        <ele>744.2438</ele>
        <time>2025-03-27T13:25:21Z</time>
      </trkpt>
      <trkpt lat="48.44841" lon="7.13265">
        <ele>744.2438</ele>
        <time>2025-03-27T13:25:26Z</time>
      </trkpt>
      <trkpt lat="48.44836" lon="7.1326">
        <ele>744.2438</ele>
        <time>2025-03-27T13:25:30Z</time>
      </trkpt>
      <trkpt lat="48.44832" lon="7.13256">
        <ele>744.2438</ele>
        <time>2025-03-27T13:25:36Z</time>
      </trkpt>
      <trkpt lat="48.44827" lon="7.13252">
        <ele>744.2438</ele>
        <time>2025-03-27T13:25:41Z</time>
      </trkpt>
      <trkpt lat="48.44824" lon="7.13249">
        <ele>744.2438</ele>
        <time>2025-03-27T13:25:45Z</time>
      </trkpt>
      <trkpt lat="48.44819" lon="7.13242">
        <ele>744.2438</ele>
        <time>2025-03-27T13:25:49Z</time>
      </trkpt>
      <trkpt lat="48.44814" lon="7.13238">
        <ele>744.2438</ele>
        <time>2025-03-27T13:25:55Z</time>
      </trkpt>
      <trkpt lat="48.44809" lon="7.13234">
        <ele>744.2438</ele>
        <time>2025-03-27T13:26:00Z</time>
      </trkpt>
      <trkpt lat="48.44804" lon="7.13229">
        <ele>744.2438</ele>
        <time>2025-03-27T13:26:06Z</time>
      </trkpt>
      <trkpt lat="48.44802" lon="7.13221">
        <ele>744.2438</ele>
        <time>2025-03-27T13:26:12Z</time>
      </trkpt>
      <trkpt lat="48.44799" lon="7.13215">
        <ele>744.2438</ele>
        <time>2025-03-27T13:26:16Z</time>
      </trkpt>
      <trkpt lat="48.44797" lon="7.13208">
        <ele>744.2438</ele>
        <time>2025-03-27T13:26:21Z</time>
      </trkpt>
      <trkpt lat="48.44794" lon="7.13201">
        <ele>744.2438</ele>
        <time>2025-03-27T13:26:28Z</time>
      </trkpt>
      <trkpt lat="48.44791" lon="7.13195">
        <ele>744.2438</ele>
        <time>2025-03-27T13:26:32Z</time>
      </trkpt>
      <trkpt lat="48.44787" lon="7.1319">
        <ele>744.2438</ele>
        <time>2025-03-27T13:26:37Z</time>
      </trkpt>
      <trkpt lat="48.44783" lon="7.13185">
        <ele>744.2438</ele>
        <time>2025-03-27T13:26:41Z</time>
      </trkpt>
      <trkpt lat="48.4478" lon="7.1318">
        <ele>744.2438</ele>
        <time>2025-03-27T13:26:46Z</time>
      </trkpt>
      <trkpt lat="48.44777" lon="7.13173">
        <ele>744.2438</ele>
        <time>2025-03-27T13:26:50Z</time>
      </trkpt>
      <trkpt lat="48.44774" lon="7.13169">
        <ele>744.2438</ele>
        <time>2025-03-27T13:26:54Z</time>
      </trkpt>
      <trkpt lat="48.44769" lon="7.13163">
        <ele>744.2438</ele>
        <time>2025-03-27T13:26:59Z</time>
      </trkpt>
      <trkpt lat="48.44769" lon="7.13155">
        <ele>744.2438</ele>
        <time>2025-03-27T13:27:05Z</time>
      </trkpt>
      <trkpt lat="48.44769" lon="7.13148">
        <ele>746.2856</ele>
        <time>2025-03-27T13:27:09Z</time>
      </trkpt>
      <trkpt lat="48.44764" lon="7.13144">
        <ele>748.3274</ele>
        <time>2025-03-27T13:27:13Z</time>
      </trkpt>
      <trkpt lat="48.44761" lon="7.13139">
        <ele>750.36914</ele>
        <time>2025-03-27T13:27:18Z</time>
      </trkpt>
      <trkpt lat="48.44759" lon="7.13133">
        <ele>752.41095</ele>
        <time>2025-03-27T13:27:22Z</time>
      </trkpt>
      <trkpt lat="48.44758" lon="7.13124">
        <ele>754.45276</ele>
        <time>2025-03-27T13:27:27Z</time>
      </trkpt>
      <trkpt lat="48.44756" lon="7.13117">
        <ele>754.45276</ele>
        <time>2025-03-27T13:27:32Z</time>
      </trkpt>
      <trkpt lat="48.44753" lon="7.13109">
        <ele>754.45276</ele>
        <time>2025-03-27T13:27:36Z</time>
      </trkpt>
      <trkpt lat="48.44751" lon="7.13104">
        <ele>754.45276</ele>
        <time>2025-03-27T13:27:42Z</time>
      </trkpt>
      <trkpt lat="48.44746" lon="7.13096">
        <ele>754.45276</ele>
        <time>2025-03-27T13:27:47Z</time>
      </trkpt>
      <trkpt lat="48.44746" lon="7.13089">
        <ele>754.45276</ele>
        <time>2025-03-27T13:27:53Z</time>
      </trkpt>
      <trkpt lat="48.44744" lon="7.13082">
        <ele>754.45276</ele>
        <time>2025-03-27T13:27:57Z</time>
      </trkpt>
      <trkpt lat="48.44741" lon="7.13075">
        <ele>754.45276</ele>
        <time>2025-03-27T13:28:02Z</time>
      </trkpt>
      <trkpt lat="48.44737" lon="7.13068">
        <ele>754.45276</ele>
        <time>2025-03-27T13:28:08Z</time>
      </trkpt>
      <trkpt lat="48.44733" lon="7.13063">
        <ele>754.45276</ele>
        <time>2025-03-27T13:28:13Z</time>
      </trkpt>
      <trkpt lat="48.44731" lon="7.13057">
        <ele>754.45276</ele>
        <time>2025-03-27T13:28:17Z</time>
      </trkpt>
      <trkpt lat="48.44729" lon="7.13051">
        <ele>754.45276</ele>
        <time>2025-03-27T13:28:23Z</time>
      </trkpt>
      <trkpt lat="48.44725" lon="7.13045">
        <ele>754.45276</ele>
        <time>2025-03-27T13:28:28Z</time>
      </trkpt>
      <trkpt lat="48.44723" lon="7.13038">
        <ele>754.45276</ele>
        <time>2025-03-27T13:28:34Z</time>
      </trkpt>
      <trkpt lat="48.44721" lon="7.1303">
        <ele>754.45276</ele>
        <time>2025-03-27T13:28:39Z</time>
      </trkpt>
      <trkpt lat="48.44717" lon="7.13026">
        <ele>754.45276</ele>
        <time>2025-03-27T13:28:44Z</time>
      </trkpt>
      <trkpt lat="48.44715" lon="7.13019">
        <ele>756.4657</ele>
        <time>2025-03-27T13:28:50Z</time>
      </trkpt>
      <trkpt lat="48.44711" lon="7.13011">
        <ele>758.47864</ele>
        <time>2025-03-27T13:28:55Z</time>
      </trkpt>
      <trkpt lat="48.44707" lon="7.13006">
        <ele>760.4915</ele>
        <time>2025-03-27T13:29:02Z</time>
      </trkpt>
      <trkpt lat="48.44703" lon="7.13">
        <ele>762.50446</ele>
        <time>2025-03-27T13:29:07Z</time>
      </trkpt>
      <trkpt lat="48.447" lon="7.12996">
        <ele>764.5174</ele>
        <time>2025-03-27T13:29:11Z</time>
      </trkpt>
      <trkpt lat="48.44697" lon="7.1299">
        <ele>764.5174</ele>
        <time>2025-03-27T13:29:17Z</time>
      </trkpt>
      <trkpt lat="48.44693" lon="7.12984">
        <ele>764.5174</ele>
        <time>2025-03-27T13:29:23Z</time>
      </trkpt>
      <trkpt lat="48.44689" lon="7.12976">
        <ele>764.5174</ele>
        <time>2025-03-27T13:29:29Z</time>
      </trkpt>
      <trkpt lat="48.44685" lon="7.12972">
        <ele>764.5174</ele>
        <time>2025-03-27T13:29:34Z</time>
      </trkpt>
      <trkpt lat="48.44683" lon="7.12965">
        <ele>764.5174</ele>
        <time>2025-03-27T13:29:38Z</time>
      </trkpt>
      <trkpt lat="48.4468" lon="7.12959">
        <ele>764.5174</ele>
        <time>2025-03-27T13:29:43Z</time>
      </trkpt>
      <trkpt lat="48.44676" lon="7.12954">
        <ele>764.5174</ele>
        <time>2025-03-27T13:29:48Z</time>
      </trkpt>
      <trkpt lat="48.44672" lon="7.12949">
        <ele>764.5174</ele>
        <time>2025-03-27T13:29:54Z</time>
      </trkpt>
      <trkpt lat="48.44668" lon="7.12946">
        <ele>764.5174</ele>
        <time>2025-03-27T13:29:59Z</time>
      </trkpt>
      <trkpt lat="48.44664" lon="7.12941">
        <ele>764.5174</ele>
        <time>2025-03-27T13:30:05Z</time>
      </trkpt>
      <trkpt lat="48.44659" lon="7.12939">
        <ele>764.5174</ele>
        <time>2025-03-27T13:30:10Z</time>
      </trkpt>
      <trkpt lat="48.44654" lon="7.12937">
        <ele>764.5174</ele>
        <time>2025-03-27T13:30:15Z</time>
      </trkpt>
      <trkpt lat="48.4465" lon="7.12933">
        <ele>764.5174</ele>
        <time>2025-03-27T13:30:19Z</time>
      </trkpt>
      <trkpt lat="48.44646" lon="7.12931">
        <ele>764.5174</ele>
        <time>2025-03-27T13:30:25Z</time>
      </trkpt>
      <trkpt lat="48.44641" lon="7.12927">
        <ele>764.5174</ele>
        <time>2025-03-27T13:30:31Z</time>
      </trkpt>
      <trkpt lat="48.44637" lon="7.12926">
        <ele>764.5174</ele>
        <time>2025-03-27T13:30:36Z</time>
      </trkpt>
      <trkpt lat="48.44635" lon="7.1292">
        <ele>764.5174</ele>
        <time>2025-03-27T13:30:47Z</time>
      </trkpt>
      <trkpt lat="48.4464" lon="7.12919">
        <ele>764.5174</ele>
        <time>2025-03-27T13:31:54Z</time>
      </trkpt>
      <trkpt lat="48.44634" lon="7.12921">
        <ele>764.5174</ele>
        <time>2025-03-27T13:32:27Z</time>
      </trkpt>
      <trkpt lat="48.4463" lon="7.12925">
        <ele>766.6609</ele>
        <time>2025-03-27T13:34:16Z</time>
      </trkpt>
      <trkpt lat="48.44624" lon="7.12922">
        <ele>768.8044</ele>
        <time>2025-03-27T13:34:21Z</time>
      </trkpt>
      <trkpt lat="48.4462" lon="7.12921">
        <ele>770.9478</ele>
        <time>2025-03-27T13:34:26Z</time>
      </trkpt>
      <trkpt lat="48.44615" lon="7.12921">
        <ele>773.0913</ele>
        <time>2025-03-27T13:34:30Z</time>
      </trkpt>
      <trkpt lat="48.4461" lon="7.1292">
        <ele>775.2348</ele>
        <time>2025-03-27T13:34:35Z</time>
      </trkpt>
      <trkpt lat="48.44606" lon="7.12919">
        <ele>775.2348</ele>
        <time>2025-03-27T13:34:40Z</time>
      </trkpt>
      <trkpt lat="48.446" lon="7.12918">
        <ele>775.2348</ele>
        <time>2025-03-27T13:34:45Z</time>
      </trkpt>
      <trkpt lat="48.44595" lon="7.12916">
        <ele>775.2348</ele>
        <time>2025-03-27T13:34:50Z</time>
      </trkpt>
      <trkpt lat="48.4459" lon="7.12915">
        <ele>775.2348</ele>
        <time>2025-03-27T13:34:55Z</time>
      </trkpt>
      <trkpt lat="48.44585" lon="7.12914">
        <ele>775.2348</ele>
        <time>2025-03-27T13:35:00Z</time>
      </trkpt>
      <trkpt lat="48.4458" lon="7.12913">
        <ele>775.2348</ele>
        <time>2025-03-27T13:35:05Z</time>
      </trkpt>
      <trkpt lat="48.44576" lon="7.12912">
        <ele>775.2348</ele>
        <time>2025-03-27T13:35:09Z</time>
      </trkpt>
      <trkpt lat="48.4457" lon="7.1291">
        <ele>775.2348</ele>
        <time>2025-03-27T13:35:14Z</time>
      </trkpt>
      <trkpt lat="48.44565" lon="7.1291">
        <ele>775.2348</ele>
        <time>2025-03-27T13:35:20Z</time>
      </trkpt>
      <trkpt lat="48.4456" lon="7.1291">
        <ele>775.2348</ele>
        <time>2025-03-27T13:35:25Z</time>
      </trkpt>
      <trkpt lat="48.44555" lon="7.12909">
        <ele>775.2348</ele>
        <time>2025-03-27T13:35:30Z</time>
      </trkpt>
      <trkpt lat="48.4455" lon="7.1291">
        <ele>775.2348</ele>
        <time>2025-03-27T13:35:36Z</time>
      </trkpt>
      <trkpt lat="48.44545" lon="7.12912">
        <ele>775.2348</ele>
        <time>2025-03-27T13:35:41Z</time>
      </trkpt>
      <trkpt lat="48.4454" lon="7.12912">
        <ele>775.2348</ele>
        <time>2025-03-27T13:35:45Z</time>
      </trkpt>
      <trkpt lat="48.44535" lon="7.12914">
        <ele>775.2348</ele>
        <time>2025-03-27T13:35:51Z</time>
      </trkpt>
      <trkpt lat="48.4453" lon="7.12914">
        <ele>775.2348</ele>
        <time>2025-03-27T13:35:56Z</time>
      </trkpt>
      <trkpt lat="48.44525" lon="7.12917">
        <ele>775.2348</ele>
        <time>2025-03-27T13:36:01Z</time>
      </trkpt>
      <trkpt lat="48.4452" lon="7.1292">
        <ele>775.2348</ele>
        <time>2025-03-27T13:36:07Z</time>
      </trkpt>
      <trkpt lat="48.44515" lon="7.12921">
        <ele>775.2348</ele>
        <time>2025-03-27T13:36:14Z</time>
      </trkpt>
      <trkpt lat="48.4451" lon="7.1292">
        <ele>775.2348</ele>
        <time>2025-03-27T13:36:19Z</time>
      </trkpt>
      <trkpt lat="48.44505" lon="7.1292">
        <ele>777.3822</ele>
        <time>2025-03-27T13:36:23Z</time>
      </trkpt>
      <trkpt lat="48.445" lon="7.12917">
        <ele>779.5296</ele>
        <time>2025-03-27T13:36:28Z</time>
      </trkpt>
      <trkpt lat="48.44497" lon="7.12913">
        <ele>781.67706</ele>
        <time>2025-03-27T13:36:32Z</time>
      </trkpt>
      <trkpt lat="48.44495" lon="7.12906">
        <ele>783.82446</ele>
        <time>2025-03-27T13:36:36Z</time>
      </trkpt>
      <trkpt lat="48.44494" lon="7.12898">
        <ele>785.97186</ele>
        <time>2025-03-27T13:36:41Z</time>
      </trkpt>
      <trkpt lat="48.44494" lon="7.12891">
        <ele>785.97186</ele>
        <time>2025-03-27T13:36:46Z</time>
      </trkpt>
      <trkpt lat="48.44496" lon="7.12884">
        <ele>785.97186</ele>
        <time>2025-03-27T13:37:04Z</time>
      </trkpt>
      <trkpt lat="48.44499" lon="7.12877">
        <ele>785.97186</ele>
        <time>2025-03-27T13:37:09Z</time>
      </trkpt>
      <trkpt lat="48.44502" lon="7.1287">
        <ele>785.97186</ele>
        <time>2025-03-27T13:37:13Z</time>
      </trkpt>
      <trkpt lat="48.44505" lon="7.12865">
        <ele>785.97186</ele>
        <time>2025-03-27T13:37:17Z</time>
      </trkpt>
      <trkpt lat="48.44508" lon="7.12858">
        <ele>785.97186</ele>
        <time>2025-03-27T13:37:22Z</time>
      </trkpt>
      <trkpt lat="48.4451" lon="7.1285">
        <ele>785.97186</ele>
        <time>2025-03-27T13:37:27Z</time>
      </trkpt>
      <trkpt lat="48.44512" lon="7.12844">
        <ele>785.97186</ele>
        <time>2025-03-27T13:37:31Z</time>
      </trkpt>
      <trkpt lat="48.44515" lon="7.12837">
        <ele>785.97186</ele>
        <time>2025-03-27T13:37:35Z</time>
      </trkpt>
      <trkpt lat="48.44516" lon="7.1283">
        <ele>785.97186</ele>
        <time>2025-03-27T13:37:42Z</time>
      </trkpt>
      <trkpt lat="48.44521" lon="7.12825">
        <ele>785.97186</ele>
        <time>2025-03-27T13:37:46Z</time>
      </trkpt>
      <trkpt lat="48.4452" lon="7.12817">
        <ele>785.97186</ele>
        <time>2025-03-27T13:37:53Z</time>
      </trkpt>
      <trkpt lat="48.4452" lon="7.12809">
        <ele>785.97186</ele>
        <time>2025-03-27T13:37:58Z</time>
      </trkpt>
      <trkpt lat="48.44519" lon="7.12803">
        <ele>785.97186</ele>
        <time>2025-03-27T13:38:02Z</time>
      </trkpt>
      <trkpt lat="48.44518" lon="7.12796">
        <ele>785.97186</ele>
        <time>2025-03-27T13:38:07Z</time>
      </trkpt>
      <trkpt lat="48.44516" lon="7.12789">
        <ele>785.97186</ele>
        <time>2025-03-27T13:38:11Z</time>
      </trkpt>
      <trkpt lat="48.44515" lon="7.12782">
        <ele>785.97186</ele>
        <time>2025-03-27T13:38:16Z</time>
      </trkpt>
      <trkpt lat="48.44512" lon="7.12776">
        <ele>785.97186</ele>
        <time>2025-03-27T13:38:21Z</time>
      </trkpt>
      <trkpt lat="48.4451" lon="7.1277">
        <ele>785.97186</ele>
        <time>2025-03-27T13:38:25Z</time>
      </trkpt>
      <trkpt lat="48.44507" lon="7.12764">
        <ele>785.97186</ele>
        <time>2025-03-27T13:38:31Z</time>
      </trkpt>
      <trkpt lat="48.44504" lon="7.12757">
        <ele>785.97186</ele>
        <time>2025-03-27T13:38:37Z</time>
      </trkpt>
      <trkpt lat="48.44503" lon="7.1275">
        <ele>785.97186</ele>
        <time>2025-03-27T13:39:01Z</time>
      </trkpt>
      <trkpt lat="48.44499" lon="7.12747">
        <ele>785.97186</ele>
        <time>2025-03-27T13:39:13Z</time>
      </trkpt>
      <trkpt lat="48.44495" lon="7.12741">
        <ele>785.97186</ele>
        <time>2025-03-27T13:39:19Z</time>
      </trkpt>
      <trkpt lat="48.44492" lon="7.12736">
        <ele>785.97186</ele>
        <time>2025-03-27T13:39:23Z</time>
      </trkpt>
      <trkpt lat="48.44489" lon="7.12729">
        <ele>785.97186</ele>
        <time>2025-03-27T13:39:29Z</time>
      </trkpt>
      <trkpt lat="48.44486" lon="7.12724">
        <ele>785.97186</ele>
        <time>2025-03-27T13:39:33Z</time>
      </trkpt>
      <trkpt lat="48.44483" lon="7.12719">
        <ele>785.97186</ele>
        <time>2025-03-27T13:39:37Z</time>
      </trkpt>
      <trkpt lat="48.4448" lon="7.12713">
        <ele>785.97186</ele>
        <time>2025-03-27T13:39:41Z</time>
      </trkpt>
      <trkpt lat="48.44476" lon="7.12708">
        <ele>785.97186</ele>
        <time>2025-03-27T13:39:46Z</time>
      </trkpt>
      <trkpt lat="48.44473" lon="7.12702">
        <ele>785.97186</ele>
        <time>2025-03-27T13:39:51Z</time>
      </trkpt>
      <trkpt lat="48.44469" lon="7.12697">
        <ele>788.23254</ele>
        <time>2025-03-27T13:39:55Z</time>
      </trkpt>
      <trkpt lat="48.44466" lon="7.12691">
        <ele>790.49316</ele>
        <time>2025-03-27T13:40:02Z</time>
      </trkpt>
      <trkpt lat="48.44463" lon="7.12685">
        <ele>792.75385</ele>
        <time>2025-03-27T13:40:05Z</time>
      </trkpt>
      <trkpt lat="48.44458" lon="7.12679">
        <ele>795.01447</ele>
        <time>2025-03-27T13:40:11Z</time>
      </trkpt>
      <trkpt lat="48.44455" lon="7.12674">
        <ele>797.27515</ele>
        <time>2025-03-27T13:40:16Z</time>
      </trkpt>
      <trkpt lat="48.44451" lon="7.12667">
        <ele>797.27515</ele>
        <time>2025-03-27T13:40:21Z</time>
      </trkpt>
      <trkpt lat="48.44448" lon="7.12662">
        <ele>797.27515</ele>
        <time>2025-03-27T13:40:23Z</time>
      </trkpt>
      <trkpt lat="48.44445" lon="7.12657">
        <ele>797.27515</ele>
        <time>2025-03-27T13:40:30Z</time>
      </trkpt>
      <trkpt lat="48.44441" lon="7.12651">
        <ele>797.27515</ele>
        <time>2025-03-27T13:40:35Z</time>
      </trkpt>
      <trkpt lat="48.44437" lon="7.12645">
        <ele>797.27515</ele>
        <time>2025-03-27T13:40:40Z</time>
      </trkpt>
      <trkpt lat="48.44434" lon="7.1264">
        <ele>797.27515</ele>
        <time>2025-03-27T13:40:45Z</time>
      </trkpt>
      <trkpt lat="48.44431" lon="7.12635">
        <ele>797.27515</ele>
        <time>2025-03-27T13:40:50Z</time>
      </trkpt>
      <trkpt lat="48.44427" lon="7.1263">
        <ele>797.27515</ele>
        <time>2025-03-27T13:40:55Z</time>
      </trkpt>
      <trkpt lat="48.44423" lon="7.12628">
        <ele>797.27515</ele>
        <time>2025-03-27T13:41:06Z</time>
      </trkpt>
      <trkpt lat="48.44425" lon="7.12634">
        <ele>797.27515</ele>
        <time>2025-03-27T13:42:08Z</time>
      </trkpt>
      <trkpt lat="48.44427" lon="7.12642">
        <ele>797.27515</ele>
        <time>2025-03-27T13:42:12Z</time>
      </trkpt>
      <trkpt lat="48.44423" lon="7.12655">
        <ele>797.27515</ele>
        <time>2025-03-27T13:42:15Z</time>
      </trkpt>
      <trkpt lat="48.44424" lon="7.12663">
        <ele>797.27515</ele>
        <time>2025-03-27T13:42:20Z</time>
      </trkpt>
      <trkpt lat="48.44426" lon="7.1267">
        <ele>797.27515</ele>
        <time>2025-03-27T13:42:25Z</time>
      </trkpt>
      <trkpt lat="48.44428" lon="7.12676">
        <ele>797.27515</ele>
        <time>2025-03-27T13:42:30Z</time>
      </trkpt>
      <trkpt lat="48.44426" lon="7.12684">
        <ele>797.27515</ele>
        <time>2025-03-27T13:42:36Z</time>
      </trkpt>
      <trkpt lat="48.4443" lon="7.1269">
        <ele>797.27515</ele>
        <time>2025-03-27T13:43:05Z</time>
      </trkpt>
      <trkpt lat="48.4443" lon="7.12697">
        <ele>799.4181</ele>
        <time>2025-03-27T13:43:08Z</time>
      </trkpt>
      <trkpt lat="48.44431" lon="7.12706">
        <ele>801.56104</ele>
        <time>2025-03-27T13:43:14Z</time>
      </trkpt>
      <trkpt lat="48.44432" lon="7.12713">
        <ele>803.7039</ele>
        <time>2025-03-27T13:43:18Z</time>
      </trkpt>
      <trkpt lat="48.44433" lon="7.1272">
        <ele>805.84686</ele>
        <time>2025-03-27T13:43:23Z</time>
      </trkpt>
      <trkpt lat="48.44434" lon="7.12727">
        <ele>807.9898</ele>
        <time>2025-03-27T13:43:28Z</time>
      </trkpt>
      <trkpt lat="48.44434" lon="7.12735">
        <ele>807.9898</ele>
        <time>2025-03-27T13:43:34Z</time>
      </trkpt>
      <trkpt lat="48.44436" lon="7.12741">
        <ele>807.9898</ele>
        <time>2025-03-27T13:43:38Z</time>
      </trkpt>
      <trkpt lat="48.44439" lon="7.12749">
        <ele>807.9898</ele>
        <time>2025-03-27T13:43:43Z</time>
      </trkpt>
      <trkpt lat="48.44439" lon="7.12757">
        <ele>807.9898</ele>
        <time>2025-03-27T13:43:48Z</time>
      </trkpt>
      <trkpt lat="48.4444" lon="7.12765">
        <ele>807.9898</ele>
        <time>2025-03-27T13:43:53Z</time>
      </trkpt>
      <trkpt lat="48.44439" lon="7.12773">
        <ele>807.9898</ele>
        <time>2025-03-27T13:43:57Z</time>
      </trkpt>
      <trkpt lat="48.4444" lon="7.1278">
        <ele>807.9898</ele>
        <time>2025-03-27T13:44:02Z</time>
      </trkpt>
      <trkpt lat="48.44442" lon="7.12786">
        <ele>807.9898</ele>
        <time>2025-03-27T13:44:07Z</time>
      </trkpt>
      <trkpt lat="48.44441" lon="7.12793">
        <ele>807.9898</ele>
        <time>2025-03-27T13:44:10Z</time>
      </trkpt>
      <trkpt lat="48.44443" lon="7.12801">
        <ele>807.9898</ele>
        <time>2025-03-27T13:44:15Z</time>
      </trkpt>
      <trkpt lat="48.44443" lon="7.12809">
        <ele>807.9898</ele>
        <time>2025-03-27T13:44:20Z</time>
      </trkpt>
      <trkpt lat="48.44444" lon="7.12819">
        <ele>807.9898</ele>
        <time>2025-03-27T13:44:35Z</time>
      </trkpt>
      <trkpt lat="48.44446" lon="7.12826">
        <ele>807.9898</ele>
        <time>2025-03-27T13:44:39Z</time>
      </trkpt>
      <trkpt lat="48.44444" lon="7.12834">
        <ele>807.9898</ele>
        <time>2025-03-27T13:44:43Z</time>
      </trkpt>
      <trkpt lat="48.44442" lon="7.12841">
        <ele>807.9898</ele>
        <time>2025-03-27T13:44:49Z</time>
      </trkpt>
      <trkpt lat="48.44441" lon="7.12847">
        <ele>807.9898</ele>
        <time>2025-03-27T13:44:54Z</time>
      </trkpt>
      <trkpt lat="48.44438" lon="7.12856">
        <ele>807.9898</ele>
        <time>2025-03-27T13:45:00Z</time>
      </trkpt>
      <trkpt lat="48.44434" lon="7.12855">
        <ele>807.9898</ele>
        <time>2025-03-27T13:45:23Z</time>
      </trkpt>
      <trkpt lat="48.44432" lon="7.12862">
        <ele>807.9898</ele>
        <time>2025-03-27T13:45:39Z</time>
      </trkpt>
      <trkpt lat="48.44432" lon="7.12869">
        <ele>807.9898</ele>
        <time>2025-03-27T13:45:59Z</time>
      </trkpt>
      <trkpt lat="48.44428" lon="7.12873">
        <ele>807.9898</ele>
        <time>2025-03-27T13:46:21Z</time>
      </trkpt>
      <trkpt lat="48.44425" lon="7.1288">
        <ele>807.9898</ele>
        <time>2025-03-27T13:46:28Z</time>
      </trkpt>
      <trkpt lat="48.44422" lon="7.12886">
        <ele>807.9898</ele>
        <time>2025-03-27T13:46:34Z</time>
      </trkpt>
      <trkpt lat="48.4442" lon="7.12892">
        <ele>807.9898</ele>
        <time>2025-03-27T13:46:39Z</time>
      </trkpt>
      <trkpt lat="48.44418" lon="7.12899">
        <ele>807.9898</ele>
        <time>2025-03-27T13:46:44Z</time>
      </trkpt>
      <trkpt lat="48.44417" lon="7.12906">
        <ele>807.9898</ele>
        <time>2025-03-27T13:46:49Z</time>
      </trkpt>
      <trkpt lat="48.44416" lon="7.12914">
        <ele>807.9898</ele>
        <time>2025-03-27T13:46:54Z</time>
      </trkpt>
      <trkpt lat="48.44417" lon="7.12922">
        <ele>810.1464</ele>
        <time>2025-03-27T13:46:59Z</time>
      </trkpt>
      <trkpt lat="48.44416" lon="7.12929">
        <ele>812.3031</ele>
        <time>2025-03-27T13:47:04Z</time>
      </trkpt>
      <trkpt lat="48.44417" lon="7.12935">
        <ele>814.4597</ele>
        <time>2025-03-27T13:47:08Z</time>
      </trkpt>
      <trkpt lat="48.44417" lon="7.12944">
        <ele>816.6164</ele>
        <time>2025-03-27T13:47:14Z</time>
      </trkpt>
      <trkpt lat="48.44416" lon="7.12951">
        <ele>818.773</ele>
        <time>2025-03-27T13:47:19Z</time>
      </trkpt>
      <trkpt lat="48.44416" lon="7.12958">
        <ele>818.773</ele>
        <time>2025-03-27T13:47:40Z</time>
      </trkpt>
      <trkpt lat="48.44417" lon="7.12966">
        <ele>818.773</ele>
        <time>2025-03-27T13:47:45Z</time>
      </trkpt>
      <trkpt lat="48.44418" lon="7.12974">
        <ele>818.773</ele>
        <time>2025-03-27T13:47:50Z</time>
      </trkpt>
      <trkpt lat="48.44419" lon="7.12981">
        <ele>818.773</ele>
        <time>2025-03-27T13:47:54Z</time>
      </trkpt>
      <trkpt lat="48.4442" lon="7.12989">
        <ele>818.773</ele>
        <time>2025-03-27T13:47:59Z</time>
      </trkpt>
      <trkpt lat="48.44421" lon="7.12995">
        <ele>818.773</ele>
        <time>2025-03-27T13:48:03Z</time>
      </trkpt>
      <trkpt lat="48.44421" lon="7.13003">
        <ele>818.773</ele>
        <time>2025-03-27T13:48:08Z</time>
      </trkpt>
      <trkpt lat="48.44421" lon="7.1301">
        <ele>818.773</ele>
        <time>2025-03-27T13:48:12Z</time>
      </trkpt>
      <trkpt lat="48.44421" lon="7.13017">
        <ele>818.773</ele>
        <time>2025-03-27T13:48:16Z</time>
      </trkpt>
      <trkpt lat="48.44422" lon="7.13024">
        <ele>818.773</ele>
        <time>2025-03-27T13:48:20Z</time>
      </trkpt>
      <trkpt lat="48.44421" lon="7.13031">
        <ele>818.773</ele>
        <time>2025-03-27T13:48:24Z</time>
      </trkpt>
      <trkpt lat="48.44422" lon="7.13038">
        <ele>818.773</ele>
        <time>2025-03-27T13:48:28Z</time>
      </trkpt>
      <trkpt lat="48.44421" lon="7.13046">
        <ele>818.773</ele>
        <time>2025-03-27T13:48:33Z</time>
      </trkpt>
      <trkpt lat="48.44421" lon="7.13053">
        <ele>818.773</ele>
        <time>2025-03-27T13:48:37Z</time>
      </trkpt>
      <trkpt lat="48.44421" lon="7.13061">
        <ele>818.773</ele>
        <time>2025-03-27T13:48:42Z</time>
      </trkpt>
      <trkpt lat="48.44422" lon="7.13069">
        <ele>818.773</ele>
        <time>2025-03-27T13:48:46Z</time>
      </trkpt>
      <trkpt lat="48.44422" lon="7.13075">
        <ele>818.773</ele>
        <time>2025-03-27T13:48:50Z</time>
      </trkpt>
      <trkpt lat="48.44423" lon="7.13082">
        <ele>818.773</ele>
        <time>2025-03-27T13:48:54Z</time>
      </trkpt>
      <trkpt lat="48.44424" lon="7.13089">
        <ele>818.773</ele>
        <time>2025-03-27T13:48:59Z</time>
      </trkpt>
      <trkpt lat="48.44425" lon="7.13097">
        <ele>818.773</ele>
        <time>2025-03-27T13:49:04Z</time>
      </trkpt>
      <trkpt lat="48.44426" lon="7.13104">
        <ele>818.773</ele>
        <time>2025-03-27T13:49:41Z</time>
      </trkpt>
      <trkpt lat="48.44424" lon="7.13112">
        <ele>818.773</ele>
        <time>2025-03-27T13:49:48Z</time>
      </trkpt>
      <trkpt lat="48.44424" lon="7.1312">
        <ele>818.773</ele>
        <time>2025-03-27T13:49:53Z</time>
      </trkpt>
      <trkpt lat="48.44423" lon="7.13127">
        <ele>818.773</ele>
        <time>2025-03-27T13:50:00Z</time>
      </trkpt>
      <trkpt lat="48.44422" lon="7.13134">
        <ele>818.773</ele>
        <time>2025-03-27T13:50:06Z</time>
      </trkpt>
      <trkpt lat="48.44421" lon="7.13141">
        <ele>820.8004</ele>
        <time>2025-03-27T13:50:11Z</time>
      </trkpt>
      <trkpt lat="48.44418" lon="7.13149">
        <ele>822.8278</ele>
        <time>2025-03-27T13:50:18Z</time>
      </trkpt>
      <trkpt lat="48.44416" lon="7.13155">
        <ele>824.8553</ele>
        <time>2025-03-27T13:50:24Z</time>
      </trkpt>
      <trkpt lat="48.44413" lon="7.13161">
        <ele>826.8827</ele>
        <time>2025-03-27T13:50:31Z</time>
      </trkpt>
      <trkpt lat="48.44408" lon="7.13163">
        <ele>828.9101</ele>
        <time>2025-03-27T13:50:37Z</time>
      </trkpt>
      <trkpt lat="48.44404" lon="7.13165">
        <ele>828.9101</ele>
        <time>2025-03-27T13:50:43Z</time>
      </trkpt>
      <trkpt lat="48.44399" lon="7.13164">
        <ele>828.9101</ele>
        <time>2025-03-27T13:50:49Z</time>
      </trkpt>
      <trkpt lat="48.44394" lon="7.13165">
        <ele>828.9101</ele>
        <time>2025-03-27T13:50:55Z</time>
      </trkpt>
      <trkpt lat="48.44389" lon="7.13166">
        <ele>828.9101</ele>
        <time>2025-03-27T13:51:01Z</time>
      </trkpt>
      <trkpt lat="48.44384" lon="7.13167">
        <ele>828.9101</ele>
        <time>2025-03-27T13:51:07Z</time>
      </trkpt>
      <trkpt lat="48.4438" lon="7.13172">
        <ele>828.9101</ele>
        <time>2025-03-27T13:51:16Z</time>
      </trkpt>
      <trkpt lat="48.44375" lon="7.13172">
        <ele>828.9101</ele>
        <time>2025-03-27T13:51:22Z</time>
      </trkpt>
      <trkpt lat="48.44371" lon="7.13178">
        <ele>828.9101</ele>
        <time>2025-03-27T13:51:29Z</time>
      </trkpt>
      <trkpt lat="48.44367" lon="7.13183">
        <ele>828.9101</ele>
        <time>2025-03-27T13:51:35Z</time>
      </trkpt>
      <trkpt lat="48.44364" lon="7.13189">
        <ele>828.9101</ele>
        <time>2025-03-27T13:51:42Z</time>
      </trkpt>
      <trkpt lat="48.4436" lon="7.13193">
        <ele>828.9101</ele>
        <time>2025-03-27T13:51:49Z</time>
      </trkpt>
      <trkpt lat="48.44357" lon="7.132">
        <ele>828.9101</ele>
        <time>2025-03-27T13:51:56Z</time>
      </trkpt>
      <trkpt lat="48.44355" lon="7.13206">
        <ele>828.9101</ele>
        <time>2025-03-27T13:52:04Z</time>
      </trkpt>
      <trkpt lat="48.44351" lon="7.13211">
        <ele>831.0651</ele>
        <time>2025-03-27T13:54:27Z</time>
      </trkpt>
      <trkpt lat="48.44348" lon="7.13205">
        <ele>833.22015</ele>
        <time>2025-03-27T13:54:34Z</time>
      </trkpt>
      <trkpt lat="48.44345" lon="7.132">
        <ele>835.3751</ele>
        <time>2025-03-27T13:54:44Z</time>
      </trkpt>
      <trkpt lat="48.4434" lon="7.13194">
        <ele>837.53015</ele>
        <time>2025-03-27T13:54:50Z</time>
      </trkpt>
      <trkpt lat="48.44336" lon="7.13191">
        <ele>839.6852</ele>
        <time>2025-03-27T13:54:57Z</time>
      </trkpt>
      <trkpt lat="48.44331" lon="7.13189">
        <ele>839.6852</ele>
        <time>2025-03-27T13:55:04Z</time>
      </trkpt>
      <trkpt lat="48.44326" lon="7.13189">
        <ele>839.6852</ele>
        <time>2025-03-27T13:55:11Z</time>
      </trkpt>
      <trkpt lat="48.44321" lon="7.13189">
        <ele>839.6852</ele>
        <time>2025-03-27T13:55:19Z</time>
      </trkpt>
      <trkpt lat="48.44317" lon="7.13189">
        <ele>839.6852</ele>
        <time>2025-03-27T13:55:24Z</time>
      </trkpt>
      <trkpt lat="48.44312" lon="7.13189">
        <ele>839.6852</ele>
        <time>2025-03-27T13:55:31Z</time>
      </trkpt>
      <trkpt lat="48.44307" lon="7.13188">
        <ele>839.6852</ele>
        <time>2025-03-27T13:55:43Z</time>
      </trkpt>
      <trkpt lat="48.44302" lon="7.13186">
        <ele>839.6852</ele>
        <time>2025-03-27T13:55:52Z</time>
      </trkpt>
      <trkpt lat="48.44297" lon="7.13184">
        <ele>839.6852</ele>
        <time>2025-03-27T13:56:07Z</time>
      </trkpt>
      <trkpt lat="48.44292" lon="7.13183">
        <ele>839.6852</ele>
        <time>2025-03-27T13:56:13Z</time>
      </trkpt>
      <trkpt lat="48.44287" lon="7.13183">
        <ele>842.2406</ele>
        <time>2025-03-27T13:56:29Z</time>
      </trkpt>
      <trkpt lat="48.44282" lon="7.13181">
        <ele>844.7961</ele>
        <time>2025-03-27T13:56:40Z</time>
      </trkpt>
      <trkpt lat="48.44279" lon="7.13176">
        <ele>847.3515</ele>
        <time>2025-03-27T13:56:46Z</time>
      </trkpt>
      <trkpt lat="48.44274" lon="7.13183">
        <ele>849.907</ele>
        <time>2025-03-27T13:56:53Z</time>
      </trkpt>
      <trkpt lat="48.44268" lon="7.13183">
        <ele>852.4624</ele>
        <time>2025-03-27T13:57:08Z</time>
      </trkpt>
      <trkpt lat="48.44266" lon="7.13177">
        <ele>852.4624</ele>
        <time>2025-03-27T13:57:16Z</time>
      </trkpt>
      <trkpt lat="48.44268" lon="7.1317">
        <ele>852.4624</ele>
        <time>2025-03-27T13:57:44Z</time>
      </trkpt>
      <trkpt lat="48.44267" lon="7.13163">
        <ele>852.4624</ele>
        <time>2025-03-27T13:57:54Z</time>
      </trkpt>
      <trkpt lat="48.44264" lon="7.13156">
        <ele>852.4624</ele>
        <time>2025-03-27T13:58:05Z</time>
      </trkpt>
      <trkpt lat="48.4426" lon="7.13148">
        <ele>852.4624</ele>
        <time>2025-03-27T13:58:16Z</time>
      </trkpt>
      <trkpt lat="48.44259" lon="7.13141">
        <ele>854.8258</ele>
        <time>2025-03-27T13:58:35Z</time>
      </trkpt>
      <trkpt lat="48.44255" lon="7.13137">
        <ele>857.1892</ele>
        <time>2025-03-27T13:58:55Z</time>
      </trkpt>
      <trkpt lat="48.44252" lon="7.13142">
        <ele>859.55255</ele>
        <time>2025-03-27T13:59:36Z</time>
      </trkpt>
      <trkpt lat="48.44248" lon="7.13146">
        <ele>861.91595</ele>
        <time>2025-03-27T13:59:42Z</time>
      </trkpt>
      <trkpt lat="48.44243" lon="7.13149">
        <ele>864.27936</ele>
        <time>2025-03-27T13:59:50Z</time>
      </trkpt>
      <trkpt lat="48.44238" lon="7.13153">
        <ele>864.27936</ele>
        <time>2025-03-27T14:00:07Z</time>
      </trkpt>
      <trkpt lat="48.44235" lon="7.13157">
        <ele>864.27936</ele>
        <time>2025-03-27T14:00:15Z</time>
      </trkpt>
      <trkpt lat="48.4423" lon="7.1316">
        <ele>864.27936</ele>
        <time>2025-03-27T14:00:24Z</time>
      </trkpt>
      <trkpt lat="48.44226" lon="7.13165">
        <ele>864.27936</ele>
        <time>2025-03-27T14:00:31Z</time>
      </trkpt>
      <trkpt lat="48.44223" lon="7.1316">
        <ele>866.299</ele>
        <time>2025-03-27T14:00:40Z</time>
      </trkpt>
      <trkpt lat="48.44223" lon="7.13152">
        <ele>868.31866</ele>
        <time>2025-03-27T14:00:51Z</time>
      </trkpt>
      <trkpt lat="48.44222" lon="7.13146">
        <ele>870.3384</ele>
        <time>2025-03-27T14:00:56Z</time>
      </trkpt>
      <trkpt lat="48.44221" lon="7.13139">
        <ele>872.35803</ele>
        <time>2025-03-27T14:01:05Z</time>
      </trkpt>
      <trkpt lat="48.44218" lon="7.13133">
        <ele>874.3777</ele>
        <time>2025-03-27T14:01:19Z</time>
      </trkpt>
      <trkpt lat="48.44218" lon="7.13126">
        <ele>874.3777</ele>
        <time>2025-03-27T14:01:23Z</time>
      </trkpt>
      <trkpt lat="48.44217" lon="7.13118">
        <ele>874.3777</ele>
        <time>2025-03-27T14:01:37Z</time>
      </trkpt>
      <trkpt lat="48.44216" lon="7.13111">
        <ele>874.3777</ele>
        <time>2025-03-27T14:01:43Z</time>
      </trkpt>
      <trkpt lat="48.44211" lon="7.13113">
        <ele>874.3777</ele>
        <time>2025-03-27T14:01:58Z</time>
      </trkpt>
      <trkpt lat="48.44208" lon="7.13119">
        <ele>874.3777</ele>
        <time>2025-03-27T14:02:14Z</time>
      </trkpt>
      <trkpt lat="48.44206" lon="7.13124">
        <ele>874.3777</ele>
        <time>2025-03-27T14:02:25Z</time>
      </trkpt>
      <trkpt lat="48.44202" lon="7.1313">
        <ele>874.3777</ele>
        <time>2025-03-27T14:02:39Z</time>
      </trkpt>
      <trkpt lat="48.442" lon="7.13136">
        <ele>876.65875</ele>
        <time>2025-03-27T14:02:53Z</time>
      </trkpt>
      <trkpt lat="48.44196" lon="7.13134">
        <ele>878.9399</ele>
        <time>2025-03-27T14:03:08Z</time>
      </trkpt>
      <trkpt lat="48.44194" lon="7.13128">
        <ele>881.22095</ele>
        <time>2025-03-27T14:03:15Z</time>
      </trkpt>
      <trkpt lat="48.44192" lon="7.13121">
        <ele>883.5021</ele>
        <time>2025-03-27T14:03:29Z</time>
      </trkpt>
      <trkpt lat="48.44191" lon="7.13114">
        <ele>885.78314</ele>
        <time>2025-03-27T14:03:36Z</time>
      </trkpt>
      <trkpt lat="48.44189" lon="7.13108">
        <ele>885.78314</ele>
        <time>2025-03-27T14:03:42Z</time>
      </trkpt>
      <trkpt lat="48.44184" lon="7.13103">
        <ele>885.78314</ele>
        <time>2025-03-27T14:04:22Z</time>
      </trkpt>
      <trkpt lat="48.44179" lon="7.13104">
        <ele>885.78314</ele>
        <time>2025-03-27T14:04:28Z</time>
      </trkpt>
      <trkpt lat="48.44175" lon="7.13099">
        <ele>885.78314</ele>
        <time>2025-03-27T14:04:34Z</time>
      </trkpt>
      <trkpt lat="48.44171" lon="7.13097">
        <ele>888.19635</ele>
        <time>2025-03-27T14:04:40Z</time>
      </trkpt>
      <trkpt lat="48.44166" lon="7.13099">
        <ele>890.6095</ele>
        <time>2025-03-27T14:04:46Z</time>
      </trkpt>
      <trkpt lat="48.44162" lon="7.13103">
        <ele>893.0227</ele>
        <time>2025-03-27T14:06:26Z</time>
      </trkpt>
      <trkpt lat="48.44159" lon="7.13109">
        <ele>895.43585</ele>
        <time>2025-03-27T14:06:32Z</time>
      </trkpt>
      <trkpt lat="48.44155" lon="7.13115">
        <ele>897.84906</ele>
        <time>2025-03-27T14:06:36Z</time>
      </trkpt>
      <trkpt lat="48.4415" lon="7.13121">
        <ele>897.84906</ele>
        <time>2025-03-27T14:06:41Z</time>
      </trkpt>
      <trkpt lat="48.44146" lon="7.13124">
        <ele>897.84906</ele>
        <time>2025-03-27T14:06:46Z</time>
      </trkpt>
      <trkpt lat="48.44143" lon="7.13131">
        <ele>897.84906</ele>
        <time>2025-03-27T14:06:52Z</time>
      </trkpt>
      <trkpt lat="48.44138" lon="7.13137">
        <ele>897.84906</ele>
        <time>2025-03-27T14:06:58Z</time>
      </trkpt>
      <trkpt lat="48.44135" lon="7.13144">
        <ele>897.84906</ele>
        <time>2025-03-27T14:07:03Z</time>
      </trkpt>
      <trkpt lat="48.44131" lon="7.13151">
        <ele>897.84906</ele>
        <time>2025-03-27T14:07:08Z</time>
      </trkpt>
      <trkpt lat="48.44127" lon="7.13159">
        <ele>897.84906</ele>
        <time>2025-03-27T14:07:17Z</time>
      </trkpt>
      <trkpt lat="48.44125" lon="7.13166">
        <ele>897.84906</ele>
        <time>2025-03-27T14:07:22Z</time>
      </trkpt>
      <trkpt lat="48.44123" lon="7.13172">
        <ele>897.84906</ele>
        <time>2025-03-27T14:07:28Z</time>
      </trkpt>
      <trkpt lat="48.44121" lon="7.13178">
        <ele>897.84906</ele>
        <time>2025-03-27T14:07:33Z</time>
      </trkpt>
      <trkpt lat="48.44118" lon="7.13185">
        <ele>897.84906</ele>
        <time>2025-03-27T14:07:39Z</time>
      </trkpt>
      <trkpt lat="48.44115" lon="7.13192">
        <ele>897.84906</ele>
        <time>2025-03-27T14:07:46Z</time>
      </trkpt>
      <trkpt lat="48.44112" lon="7.13197">
        <ele>897.84906</ele>
        <time>2025-03-27T14:07:54Z</time>
      </trkpt>
      <trkpt lat="48.44109" lon="7.13203">
        <ele>897.84906</ele>
        <time>2025-03-27T14:08:08Z</time>
      </trkpt>
      <trkpt lat="48.44109" lon="7.13211">
        <ele>897.84906</ele>
        <time>2025-03-27T14:08:12Z</time>
      </trkpt>
      <trkpt lat="48.44108" lon="7.13217">
        <ele>897.84906</ele>
        <time>2025-03-27T14:08:20Z</time>
      </trkpt>
      <trkpt lat="48.44105" lon="7.13212">
        <ele>897.84906</ele>
        <time>2025-03-27T14:09:33Z</time>
      </trkpt>
      <trkpt lat="48.44111" lon="7.13213">
        <ele>897.84906</ele>
        <time>2025-03-27T14:09:53Z</time>
      </trkpt>
      <trkpt lat="48.44105" lon="7.13216">
        <ele>897.84906</ele>
        <time>2025-03-27T14:10:49Z</time>
      </trkpt>
      <trkpt lat="48.44103" lon="7.1321">
        <ele>897.84906</ele>
        <time>2025-03-27T14:11:05Z</time>
      </trkpt>
      <trkpt lat="48.44101" lon="7.13216">
        <ele>897.84906</ele>
        <time>2025-03-27T14:12:15Z</time>
      </trkpt>
      <trkpt lat="48.44103" lon="7.1321">
        <ele>897.84906</ele>
        <time>2025-03-27T14:12:55Z</time>
      </trkpt>
      <trkpt lat="48.44108" lon="7.13209">
        <ele>897.84906</ele>
        <time>2025-03-27T14:16:30Z</time>
      </trkpt>
      <trkpt lat="48.44104" lon="7.13206">
        <ele>897.84906</ele>
        <time>2025-03-27T14:16:59Z</time>
      </trkpt>
      <trkpt lat="48.44108" lon="7.13206">
        <ele>897.84906</ele>
        <time>2025-03-27T14:18:26Z</time>
      </trkpt>
      <trkpt lat="48.44111" lon="7.132">
        <ele>897.84906</ele>
        <time>2025-03-27T14:18:33Z</time>
      </trkpt>
      <trkpt lat="48.44115" lon="7.13196">
        <ele>897.84906</ele>
        <time>2025-03-27T14:18:38Z</time>
      </trkpt>
      <trkpt lat="48.44118" lon="7.13191">
        <ele>897.84906</ele>
        <time>2025-03-27T14:18:50Z</time>
      </trkpt>
      <trkpt lat="48.44119" lon="7.13184">
        <ele>897.84906</ele>
        <time>2025-03-27T14:18:56Z</time>
      </trkpt>
      <trkpt lat="48.44121" lon="7.13177">
        <ele>897.84906</ele>
        <time>2025-03-27T14:19:03Z</time>
      </trkpt>
      <trkpt lat="48.44124" lon="7.1317">
        <ele>897.84906</ele>
        <time>2025-03-27T14:19:09Z</time>
      </trkpt>
      <trkpt lat="48.44126" lon="7.13164">
        <ele>897.84906</ele>
        <time>2025-03-27T14:19:16Z</time>
      </trkpt>
      <trkpt lat="48.44129" lon="7.13156">
        <ele>897.84906</ele>
        <time>2025-03-27T14:19:23Z</time>
      </trkpt>
      <trkpt lat="48.44131" lon="7.13149">
        <ele>897.84906</ele>
        <time>2025-03-27T14:19:37Z</time>
      </trkpt>
      <trkpt lat="48.44134" lon="7.13144">
        <ele>897.84906</ele>
        <time>2025-03-27T14:19:43Z</time>
      </trkpt>
      <trkpt lat="48.44137" lon="7.13139">
        <ele>897.84906</ele>
        <time>2025-03-27T14:19:48Z</time>
      </trkpt>
      <trkpt lat="48.4414" lon="7.13134">
        <ele>897.84906</ele>
        <time>2025-03-27T14:19:52Z</time>
      </trkpt>
      <trkpt lat="48.44144" lon="7.13128">
        <ele>897.84906</ele>
        <time>2025-03-27T14:19:56Z</time>
      </trkpt>
      <trkpt lat="48.44148" lon="7.13121">
        <ele>897.84906</ele>
        <time>2025-03-27T14:20:03Z</time>
      </trkpt>
      <trkpt lat="48.44151" lon="7.13116">
        <ele>897.84906</ele>
        <time>2025-03-27T14:20:07Z</time>
      </trkpt>
      <trkpt lat="48.44154" lon="7.13111">
        <ele>897.84906</ele>
        <time>2025-03-27T14:20:14Z</time>
      </trkpt>
      <trkpt lat="48.44158" lon="7.13107">
        <ele>897.84906</ele>
        <time>2025-03-27T14:20:19Z</time>
      </trkpt>
      <trkpt lat="48.44161" lon="7.13102">
        <ele>897.84906</ele>
        <time>2025-03-27T14:20:24Z</time>
      </trkpt>
      <trkpt lat="48.44165" lon="7.13098">
        <ele>897.84906</ele>
        <time>2025-03-27T14:20:30Z</time>
      </trkpt>
      <trkpt lat="48.4417" lon="7.13096">
        <ele>897.84906</ele>
        <time>2025-03-27T14:20:38Z</time>
      </trkpt>
      <trkpt lat="48.44175" lon="7.13097">
        <ele>897.84906</ele>
        <time>2025-03-27T14:20:44Z</time>
      </trkpt>
      <trkpt lat="48.4418" lon="7.13101">
        <ele>897.84906</ele>
        <time>2025-03-27T14:20:58Z</time>
      </trkpt>
      <trkpt lat="48.44184" lon="7.13105">
        <ele>897.84906</ele>
        <time>2025-03-27T14:21:14Z</time>
      </trkpt>
      <trkpt lat="48.44187" lon="7.1311">
        <ele>897.84906</ele>
        <time>2025-03-27T14:21:31Z</time>
      </trkpt>
      <trkpt lat="48.44191" lon="7.13115">
        <ele>897.84906</ele>
        <time>2025-03-27T14:21:40Z</time>
      </trkpt>
      <trkpt lat="48.44194" lon="7.13121">
        <ele>897.84906</ele>
        <time>2025-03-27T14:21:53Z</time>
      </trkpt>
      <trkpt lat="48.44197" lon="7.13126">
        <ele>897.84906</ele>
        <time>2025-03-27T14:22:10Z</time>
      </trkpt>
      <trkpt lat="48.44201" lon="7.13123">
        <ele>895.2805</ele>
        <time>2025-03-27T14:23:00Z</time>
      </trkpt>
      <trkpt lat="48.44204" lon="7.13116">
        <ele>892.7119</ele>
        <time>2025-03-27T14:23:11Z</time>
      </trkpt>
      <trkpt lat="48.44208" lon="7.13116">
        <ele>890.1434</ele>
        <time>2025-03-27T14:23:23Z</time>
      </trkpt>
      <trkpt lat="48.44212" lon="7.13113">
        <ele>887.57477</ele>
        <time>2025-03-27T14:23:57Z</time>
      </trkpt>
      <trkpt lat="48.44217" lon="7.13114">
        <ele>885.0062</ele>
        <time>2025-03-27T14:24:09Z</time>
      </trkpt>
      <trkpt lat="48.44218" lon="7.13121">
        <ele>885.0062</ele>
        <time>2025-03-27T14:24:36Z</time>
      </trkpt>
      <trkpt lat="48.4422" lon="7.13127">
        <ele>885.0062</ele>
        <time>2025-03-27T14:24:44Z</time>
      </trkpt>
      <trkpt lat="48.4422" lon="7.13134">
        <ele>885.0062</ele>
        <time>2025-03-27T14:25:00Z</time>
      </trkpt>
      <trkpt lat="48.44221" lon="7.13142">
        <ele>882.9915</ele>
        <time>2025-03-27T14:25:16Z</time>
      </trkpt>
      <trkpt lat="48.44221" lon="7.13151">
        <ele>880.97687</ele>
        <time>2025-03-27T14:25:26Z</time>
      </trkpt>
      <trkpt lat="48.44222" lon="7.1316">
        <ele>878.96216</ele>
        <time>2025-03-27T14:25:36Z</time>
      </trkpt>
      <trkpt lat="48.44227" lon="7.13156">
        <ele>876.9475</ele>
        <time>2025-03-27T14:25:57Z</time>
      </trkpt>
      <trkpt lat="48.44231" lon="7.13153">
        <ele>874.9328</ele>
        <time>2025-03-27T14:26:04Z</time>
      </trkpt>
      <trkpt lat="48.44236" lon="7.1315">
        <ele>874.9328</ele>
        <time>2025-03-27T14:26:10Z</time>
      </trkpt>
      <trkpt lat="48.4424" lon="7.13146">
        <ele>874.9328</ele>
        <time>2025-03-27T14:26:17Z</time>
      </trkpt>
      <trkpt lat="48.44244" lon="7.13144">
        <ele>872.3468</ele>
        <time>2025-03-27T14:26:33Z</time>
      </trkpt>
      <trkpt lat="48.44249" lon="7.1314">
        <ele>869.76086</ele>
        <time>2025-03-27T14:26:38Z</time>
      </trkpt>
      <trkpt lat="48.44254" lon="7.13138">
        <ele>867.17487</ele>
        <time>2025-03-27T14:26:46Z</time>
      </trkpt>
      <trkpt lat="48.44258" lon="7.13142">
        <ele>864.5889</ele>
        <time>2025-03-27T14:27:31Z</time>
      </trkpt>
      <trkpt lat="48.44261" lon="7.13147">
        <ele>862.0029</ele>
        <time>2025-03-27T14:27:50Z</time>
      </trkpt>
      <trkpt lat="48.44262" lon="7.13154">
        <ele>862.0029</ele>
        <time>2025-03-27T14:27:58Z</time>
      </trkpt>
      <trkpt lat="48.44264" lon="7.13161">
        <ele>862.0029</ele>
        <time>2025-03-27T14:28:06Z</time>
      </trkpt>
      <trkpt lat="48.44267" lon="7.13167">
        <ele>862.0029</ele>
        <time>2025-03-27T14:28:24Z</time>
      </trkpt>
      <trkpt lat="48.44267" lon="7.13175">
        <ele>862.0029</ele>
        <time>2025-03-27T14:28:31Z</time>
      </trkpt>
      <trkpt lat="48.44266" lon="7.13183">
        <ele>862.0029</ele>
        <time>2025-03-27T14:28:41Z</time>
      </trkpt>
      <trkpt lat="48.4427" lon="7.13181">
        <ele>862.0029</ele>
        <time>2025-03-27T14:28:47Z</time>
      </trkpt>
      <trkpt lat="48.44275" lon="7.13179">
        <ele>862.0029</ele>
        <time>2025-03-27T14:28:57Z</time>
      </trkpt>
      <trkpt lat="48.4428" lon="7.1318">
        <ele>859.9081</ele>
        <time>2025-03-27T14:29:10Z</time>
      </trkpt>
      <trkpt lat="48.44286" lon="7.1318">
        <ele>857.81323</ele>
        <time>2025-03-27T14:29:24Z</time>
      </trkpt>
      <trkpt lat="48.44291" lon="7.13182">
        <ele>855.7184</ele>
        <time>2025-03-27T14:29:33Z</time>
      </trkpt>
      <trkpt lat="48.44295" lon="7.13184">
        <ele>853.62354</ele>
        <time>2025-03-27T14:29:49Z</time>
      </trkpt>
      <trkpt lat="48.443" lon="7.13185">
        <ele>851.5287</ele>
        <time>2025-03-27T14:30:03Z</time>
      </trkpt>
      <trkpt lat="48.44304" lon="7.13187">
        <ele>851.5287</ele>
        <time>2025-03-27T14:30:12Z</time>
      </trkpt>
      <trkpt lat="48.44309" lon="7.13189">
        <ele>851.5287</ele>
        <time>2025-03-27T14:30:21Z</time>
      </trkpt>
      <trkpt lat="48.44314" lon="7.13189">
        <ele>851.5287</ele>
        <time>2025-03-27T14:30:28Z</time>
      </trkpt>
      <trkpt lat="48.44319" lon="7.13189">
        <ele>851.5287</ele>
        <time>2025-03-27T14:30:33Z</time>
      </trkpt>
      <trkpt lat="48.44324" lon="7.13189">
        <ele>851.5287</ele>
        <time>2025-03-27T14:30:42Z</time>
      </trkpt>
      <trkpt lat="48.44329" lon="7.13189">
        <ele>851.5287</ele>
        <time>2025-03-27T14:30:48Z</time>
      </trkpt>
      <trkpt lat="48.44333" lon="7.13189">
        <ele>851.5287</ele>
        <time>2025-03-27T14:30:53Z</time>
      </trkpt>
      <trkpt lat="48.44338" lon="7.13191">
        <ele>851.5287</ele>
        <time>2025-03-27T14:31:00Z</time>
      </trkpt>
      <trkpt lat="48.44344" lon="7.13194">
        <ele>851.5287</ele>
        <time>2025-03-27T14:31:05Z</time>
      </trkpt>
      <trkpt lat="48.44347" lon="7.13199">
        <ele>849.2975</ele>
        <time>2025-03-27T14:31:13Z</time>
      </trkpt>
      <trkpt lat="48.44351" lon="7.13204">
        <ele>847.0663</ele>
        <time>2025-03-27T14:31:21Z</time>
      </trkpt>
      <trkpt lat="48.44352" lon="7.1321">
        <ele>844.835</ele>
        <time>2025-03-27T14:31:43Z</time>
      </trkpt>
      <trkpt lat="48.44357" lon="7.1321">
        <ele>842.6038</ele>
        <time>2025-03-27T14:32:10Z</time>
      </trkpt>
      <trkpt lat="48.44361" lon="7.13215">
        <ele>840.3726</ele>
        <time>2025-03-27T14:32:12Z</time>
      </trkpt>
      <trkpt lat="48.44365" lon="7.1322">
        <ele>840.3726</ele>
        <time>2025-03-27T14:33:23Z</time>
      </trkpt>
      <trkpt lat="48.44367" lon="7.13226">
        <ele>840.3726</ele>
        <time>2025-03-27T14:33:29Z</time>
      </trkpt>
      <trkpt lat="48.44371" lon="7.13229">
        <ele>840.3726</ele>
        <time>2025-03-27T14:33:34Z</time>
      </trkpt>
      <trkpt lat="48.44376" lon="7.13233">
        <ele>840.3726</ele>
        <time>2025-03-27T14:33:39Z</time>
      </trkpt>
      <trkpt lat="48.44379" lon="7.13237">
        <ele>840.3726</ele>
        <time>2025-03-27T14:33:44Z</time>
      </trkpt>
      <trkpt lat="48.44384" lon="7.13238">
        <ele>840.3726</ele>
        <time>2025-03-27T14:33:47Z</time>
      </trkpt>
      <trkpt lat="48.44385" lon="7.13245">
        <ele>840.3726</ele>
        <time>2025-03-27T14:33:52Z</time>
      </trkpt>
      <trkpt lat="48.4439" lon="7.13249">
        <ele>840.3726</ele>
        <time>2025-03-27T14:33:56Z</time>
      </trkpt>
      <trkpt lat="48.44394" lon="7.13253">
        <ele>840.3726</ele>
        <time>2025-03-27T14:34:01Z</time>
      </trkpt>
      <trkpt lat="48.44399" lon="7.13257">
        <ele>840.3726</ele>
        <time>2025-03-27T14:34:06Z</time>
      </trkpt>
      <trkpt lat="48.444" lon="7.13264">
        <ele>840.3726</ele>
        <time>2025-03-27T14:34:11Z</time>
      </trkpt>
      <trkpt lat="48.44406" lon="7.13269">
        <ele>840.3726</ele>
        <time>2025-03-27T14:34:15Z</time>
      </trkpt>
      <trkpt lat="48.44408" lon="7.13277">
        <ele>840.3726</ele>
        <time>2025-03-27T14:34:22Z</time>
      </trkpt>
      <trkpt lat="48.44411" lon="7.13283">
        <ele>840.3726</ele>
        <time>2025-03-27T14:34:27Z</time>
      </trkpt>
      <trkpt lat="48.44415" lon="7.13289">
        <ele>840.3726</ele>
        <time>2025-03-27T14:34:32Z</time>
      </trkpt>
      <trkpt lat="48.44413" lon="7.13296">
        <ele>840.3726</ele>
        <time>2025-03-27T14:34:37Z</time>
      </trkpt>
      <trkpt lat="48.44415" lon="7.13303">
        <ele>840.3726</ele>
        <time>2025-03-27T14:34:42Z</time>
      </trkpt>
      <trkpt lat="48.44418" lon="7.13309">
        <ele>840.3726</ele>
        <time>2025-03-27T14:34:46Z</time>
      </trkpt>
      <trkpt lat="48.44423" lon="7.13313">
        <ele>840.3726</ele>
        <time>2025-03-27T14:34:50Z</time>
      </trkpt>
      <trkpt lat="48.44427" lon="7.13319">
        <ele>840.3726</ele>
        <time>2025-03-27T14:34:57Z</time>
      </trkpt>
      <trkpt lat="48.44431" lon="7.13321">
        <ele>840.3726</ele>
        <time>2025-03-27T14:35:02Z</time>
      </trkpt>
      <trkpt lat="48.44435" lon="7.13326">
        <ele>840.3726</ele>
        <time>2025-03-27T14:35:15Z</time>
      </trkpt>
      <trkpt lat="48.44439" lon="7.13331">
        <ele>840.3726</ele>
        <time>2025-03-27T14:35:27Z</time>
      </trkpt>
      <trkpt lat="48.44444" lon="7.13331">
        <ele>840.3726</ele>
        <time>2025-03-27T14:35:32Z</time>
      </trkpt>
      <trkpt lat="48.44448" lon="7.13333">
        <ele>840.3726</ele>
        <time>2025-03-27T14:35:38Z</time>
      </trkpt>
      <trkpt lat="48.44452" lon="7.13336">
        <ele>840.3726</ele>
        <time>2025-03-27T14:35:44Z</time>
      </trkpt>
      <trkpt lat="48.44457" lon="7.1334">
        <ele>840.3726</ele>
        <time>2025-03-27T14:35:51Z</time>
      </trkpt>
      <trkpt lat="48.44461" lon="7.13343">
        <ele>840.3726</ele>
        <time>2025-03-27T14:35:54Z</time>
      </trkpt>
      <trkpt lat="48.44465" lon="7.13348">
        <ele>840.3726</ele>
        <time>2025-03-27T14:36:01Z</time>
      </trkpt>
      <trkpt lat="48.44467" lon="7.13354">
        <ele>840.3726</ele>
        <time>2025-03-27T14:36:05Z</time>
      </trkpt>
      <trkpt lat="48.44473" lon="7.13356">
        <ele>840.3726</ele>
        <time>2025-03-27T14:36:10Z</time>
      </trkpt>
      <trkpt lat="48.44476" lon="7.13361">
        <ele>840.3726</ele>
        <time>2025-03-27T14:36:15Z</time>
      </trkpt>
      <trkpt lat="48.44478" lon="7.13368">
        <ele>840.3726</ele>
        <time>2025-03-27T14:36:21Z</time>
      </trkpt>
      <trkpt lat="48.44477" lon="7.13375">
        <ele>840.3726</ele>
        <time>2025-03-27T14:36:27Z</time>
      </trkpt>
      <trkpt lat="48.44475" lon="7.13381">
        <ele>840.3726</ele>
        <time>2025-03-27T14:36:31Z</time>
      </trkpt>
      <trkpt lat="48.44479" lon="7.13384">
        <ele>840.3726</ele>
        <time>2025-03-27T14:36:40Z</time>
      </trkpt>
      <trkpt lat="48.44481" lon="7.13391">
        <ele>840.3726</ele>
        <time>2025-03-27T14:36:46Z</time>
      </trkpt>
      <trkpt lat="48.44486" lon="7.13396">
        <ele>840.3726</ele>
        <time>2025-03-27T14:36:52Z</time>
      </trkpt>
      <trkpt lat="48.44488" lon="7.13403">
        <ele>840.3726</ele>
        <time>2025-03-27T14:36:57Z</time>
      </trkpt>
      <trkpt lat="48.44486" lon="7.13409">
        <ele>840.3726</ele>
        <time>2025-03-27T14:37:01Z</time>
      </trkpt>
      <trkpt lat="48.44488" lon="7.13416">
        <ele>840.3726</ele>
        <time>2025-03-27T14:37:06Z</time>
      </trkpt>
      <trkpt lat="48.44485" lon="7.13422">
        <ele>840.3726</ele>
        <time>2025-03-27T14:37:12Z</time>
      </trkpt>
      <trkpt lat="48.44489" lon="7.13427">
        <ele>840.3726</ele>
        <time>2025-03-27T14:37:17Z</time>
      </trkpt>
      <trkpt lat="48.44488" lon="7.13434">
        <ele>840.3726</ele>
        <time>2025-03-27T14:37:22Z</time>
      </trkpt>
      <trkpt lat="48.4449" lon="7.13441">
        <ele>840.3726</ele>
        <time>2025-03-27T14:37:27Z</time>
      </trkpt>
      <trkpt lat="48.44496" lon="7.13439">
        <ele>840.3726</ele>
        <time>2025-03-27T14:37:36Z</time>
      </trkpt>
      <trkpt lat="48.44499" lon="7.13434">
        <ele>840.3726</ele>
        <time>2025-03-27T14:37:41Z</time>
      </trkpt>
      <trkpt lat="48.44504" lon="7.13437">
        <ele>840.3726</ele>
        <time>2025-03-27T14:37:46Z</time>
      </trkpt>
      <trkpt lat="48.44508" lon="7.13439">
        <ele>840.3726</ele>
        <time>2025-03-27T14:37:52Z</time>
      </trkpt>
      <trkpt lat="48.44511" lon="7.13445">
        <ele>840.3726</ele>
        <time>2025-03-27T14:37:57Z</time>
      </trkpt>
      <trkpt lat="48.44512" lon="7.13452">
        <ele>840.3726</ele>
        <time>2025-03-27T14:38:08Z</time>
      </trkpt>
      <trkpt lat="48.44515" lon="7.13457">
        <ele>840.3726</ele>
        <time>2025-03-27T14:38:13Z</time>
      </trkpt>
      <trkpt lat="48.44518" lon="7.13463">
        <ele>840.3726</ele>
        <time>2025-03-27T14:38:18Z</time>
      </trkpt>
      <trkpt lat="48.44519" lon="7.1347">
        <ele>840.3726</ele>
        <time>2025-03-27T14:38:22Z</time>
      </trkpt>
      <trkpt lat="48.44524" lon="7.13474">
        <ele>840.3726</ele>
        <time>2025-03-27T14:38:26Z</time>
      </trkpt>
      <trkpt lat="48.44525" lon="7.13482">
        <ele>840.3726</ele>
        <time>2025-03-27T14:38:32Z</time>
      </trkpt>
      <trkpt lat="48.44525" lon="7.13489">
        <ele>840.3726</ele>
        <time>2025-03-27T14:38:38Z</time>
      </trkpt>
      <trkpt lat="48.44524" lon="7.13496">
        <ele>840.3726</ele>
        <time>2025-03-27T14:38:44Z</time>
      </trkpt>
      <trkpt lat="48.44523" lon="7.13504">
        <ele>840.3726</ele>
        <time>2025-03-27T14:39:00Z</time>
      </trkpt>
      <trkpt lat="48.44527" lon="7.13509">
        <ele>840.3726</ele>
        <time>2025-03-27T14:39:07Z</time>
      </trkpt>
      <trkpt lat="48.44529" lon="7.13516">
        <ele>840.3726</ele>
        <time>2025-03-27T14:39:13Z</time>
      </trkpt>
      <trkpt lat="48.44531" lon="7.13523">
        <ele>840.3726</ele>
        <time>2025-03-27T14:39:20Z</time>
      </trkpt>
      <trkpt lat="48.44535" lon="7.13528">
        <ele>840.3726</ele>
        <time>2025-03-27T14:39:25Z</time>
      </trkpt>
      <trkpt lat="48.44538" lon="7.13534">
        <ele>840.3726</ele>
        <time>2025-03-27T14:39:30Z</time>
      </trkpt>
      <trkpt lat="48.4454" lon="7.13541">
        <ele>840.3726</ele>
        <time>2025-03-27T14:39:36Z</time>
      </trkpt>
      <trkpt lat="48.44539" lon="7.13548">
        <ele>840.3726</ele>
        <time>2025-03-27T14:39:41Z</time>
      </trkpt>
      <trkpt lat="48.44538" lon="7.13554">
        <ele>840.3726</ele>
        <time>2025-03-27T14:39:48Z</time>
      </trkpt>
      <trkpt lat="48.44539" lon="7.13562">
        <ele>840.3726</ele>
        <time>2025-03-27T14:39:53Z</time>
      </trkpt>
      <trkpt lat="48.4454" lon="7.1357">
        <ele>840.3726</ele>
        <time>2025-03-27T14:39:58Z</time>
      </trkpt>
      <trkpt lat="48.44543" lon="7.13576">
        <ele>840.3726</ele>
        <time>2025-03-27T14:40:04Z</time>
      </trkpt>
      <trkpt lat="48.44544" lon="7.13584">
        <ele>840.3726</ele>
        <time>2025-03-27T14:40:09Z</time>
      </trkpt>
      <trkpt lat="48.44546" lon="7.13591">
        <ele>840.3726</ele>
        <time>2025-03-27T14:40:16Z</time>
      </trkpt>
      <trkpt lat="48.44547" lon="7.13598">
        <ele>840.3726</ele>
        <time>2025-03-27T14:40:21Z</time>
      </trkpt>
      <trkpt lat="48.44549" lon="7.13605">
        <ele>840.3726</ele>
        <time>2025-03-27T14:40:30Z</time>
      </trkpt>
      <trkpt lat="48.44545" lon="7.13607">
        <ele>840.3726</ele>
        <time>2025-03-27T14:40:41Z</time>
      </trkpt>
      <trkpt lat="48.44549" lon="7.13609">
        <ele>840.3726</ele>
        <time>2025-03-27T14:42:10Z</time>
      </trkpt>
      <trkpt lat="48.44548" lon="7.13616">
        <ele>840.3726</ele>
        <time>2025-03-27T14:42:22Z</time>
      </trkpt>
      <trkpt lat="48.44547" lon="7.13623">
        <ele>840.3726</ele>
        <time>2025-03-27T14:42:29Z</time>
      </trkpt>
      <trkpt lat="48.4455" lon="7.13629">
        <ele>840.3726</ele>
        <time>2025-03-27T14:42:35Z</time>
      </trkpt>
      <trkpt lat="48.44553" lon="7.13635">
        <ele>840.3726</ele>
        <time>2025-03-27T14:42:42Z</time>
      </trkpt>
      <trkpt lat="48.44555" lon="7.13642">
        <ele>840.3726</ele>
        <time>2025-03-27T14:42:48Z</time>
      </trkpt>
      <trkpt lat="48.44558" lon="7.13647">
        <ele>840.3726</ele>
        <time>2025-03-27T14:43:06Z</time>
      </trkpt>
      <trkpt lat="48.44561" lon="7.13655">
        <ele>840.3726</ele>
        <time>2025-03-27T14:43:13Z</time>
      </trkpt>
      <trkpt lat="48.44565" lon="7.13658">
        <ele>840.3726</ele>
        <time>2025-03-27T14:43:22Z</time>
      </trkpt>
      <trkpt lat="48.44569" lon="7.13663">
        <ele>840.3726</ele>
        <time>2025-03-27T14:43:30Z</time>
      </trkpt>
      <trkpt lat="48.4457" lon="7.13671">
        <ele>840.3726</ele>
        <time>2025-03-27T14:43:41Z</time>
      </trkpt>
      <trkpt lat="48.44574" lon="7.13674">
        <ele>840.3726</ele>
        <time>2025-03-27T14:43:48Z</time>
      </trkpt>
      <trkpt lat="48.44577" lon="7.1368">
        <ele>840.3726</ele>
        <time>2025-03-27T14:43:54Z</time>
      </trkpt>
      <trkpt lat="48.44581" lon="7.13685">
        <ele>840.3726</ele>
        <time>2025-03-27T14:43:59Z</time>
      </trkpt>
      <trkpt lat="48.44584" lon="7.13689">
        <ele>840.3726</ele>
        <time>2025-03-27T14:44:04Z</time>
      </trkpt>
      <trkpt lat="48.44588" lon="7.13695">
        <ele>840.3726</ele>
        <time>2025-03-27T14:44:11Z</time>
      </trkpt>
      <trkpt lat="48.44592" lon="7.13698">
        <ele>840.3726</ele>
        <time>2025-03-27T14:44:18Z</time>
      </trkpt>
      <trkpt lat="48.44597" lon="7.13703">
        <ele>840.3726</ele>
        <time>2025-03-27T14:44:25Z</time>
      </trkpt>
      <trkpt lat="48.44601" lon="7.13708">
        <ele>840.3726</ele>
        <time>2025-03-27T14:44:36Z</time>
      </trkpt>
      <trkpt lat="48.44603" lon="7.13715">
        <ele>840.3726</ele>
        <time>2025-03-27T14:44:43Z</time>
      </trkpt>
      <trkpt lat="48.44607" lon="7.13718">
        <ele>840.3726</ele>
        <time>2025-03-27T14:44:49Z</time>
      </trkpt>
      <trkpt lat="48.44612" lon="7.13722">
        <ele>840.3726</ele>
        <time>2025-03-27T14:44:56Z</time>
      </trkpt>
      <trkpt lat="48.44616" lon="7.13726">
        <ele>840.3726</ele>
        <time>2025-03-27T14:45:03Z</time>
      </trkpt>
      <trkpt lat="48.4462" lon="7.13732">
        <ele>840.3726</ele>
        <time>2025-03-27T14:45:10Z</time>
      </trkpt>
      <trkpt lat="48.44623" lon="7.13738">
        <ele>840.3726</ele>
        <time>2025-03-27T14:45:19Z</time>
      </trkpt>
      <trkpt lat="48.44628" lon="7.13742">
        <ele>840.3726</ele>
        <time>2025-03-27T14:45:28Z</time>
      </trkpt>
      <trkpt lat="48.44627" lon="7.13749">
        <ele>840.3726</ele>
        <time>2025-03-27T14:45:45Z</time>
      </trkpt>
      <trkpt lat="48.44631" lon="7.13755">
        <ele>840.3726</ele>
        <time>2025-03-27T14:45:55Z</time>
      </trkpt>
      <trkpt lat="48.44635" lon="7.13758">
        <ele>840.3726</ele>
        <time>2025-03-27T14:46:06Z</time>
      </trkpt>
      <trkpt lat="48.4464" lon="7.13764">
        <ele>840.3726</ele>
        <time>2025-03-27T14:46:14Z</time>
      </trkpt>
      <trkpt lat="48.44642" lon="7.13771">
        <ele>840.3726</ele>
        <time>2025-03-27T14:46:24Z</time>
      </trkpt>
      <trkpt lat="48.44643" lon="7.13779">
        <ele>840.3726</ele>
        <time>2025-03-27T14:46:30Z</time>
      </trkpt>
      <trkpt lat="48.44647" lon="7.13784">
        <ele>840.3726</ele>
        <time>2025-03-27T14:46:33Z</time>
      </trkpt>
      <trkpt lat="48.44649" lon="7.13792">
        <ele>840.3726</ele>
        <time>2025-03-27T14:46:39Z</time>
      </trkpt>
      <trkpt lat="48.4465" lon="7.13799">
        <ele>840.3726</ele>
        <time>2025-03-27T14:46:46Z</time>
      </trkpt>
      <trkpt lat="48.44653" lon="7.13805">
        <ele>840.3726</ele>
        <time>2025-03-27T14:46:50Z</time>
      </trkpt>
      <trkpt lat="48.44655" lon="7.13811">
        <ele>840.3726</ele>
        <time>2025-03-27T14:46:55Z</time>
      </trkpt>
      <trkpt lat="48.44659" lon="7.13818">
        <ele>840.3726</ele>
        <time>2025-03-27T14:47:01Z</time>
      </trkpt>
      <trkpt lat="48.44663" lon="7.13825">
        <ele>840.3726</ele>
        <time>2025-03-27T14:47:06Z</time>
      </trkpt>
      <trkpt lat="48.44663" lon="7.13833">
        <ele>840.3726</ele>
        <time>2025-03-27T14:47:10Z</time>
      </trkpt>
      <trkpt lat="48.44666" lon="7.1384">
        <ele>840.3726</ele>
        <time>2025-03-27T14:47:15Z</time>
      </trkpt>
      <trkpt lat="48.44669" lon="7.13845">
        <ele>840.3726</ele>
        <time>2025-03-27T14:47:19Z</time>
      </trkpt>
      <trkpt lat="48.44669" lon="7.13852">
        <ele>840.3726</ele>
        <time>2025-03-27T14:47:23Z</time>
      </trkpt>
      <trkpt lat="48.44669" lon="7.1386">
        <ele>840.3726</ele>
        <time>2025-03-27T14:47:28Z</time>
      </trkpt>
      <trkpt lat="48.4467" lon="7.1387">
        <ele>840.3726</ele>
        <time>2025-03-27T14:47:33Z</time>
      </trkpt>
      <trkpt lat="48.44674" lon="7.13876">
        <ele>840.3726</ele>
        <time>2025-03-27T14:47:38Z</time>
      </trkpt>
      <trkpt lat="48.44677" lon="7.13883">
        <ele>840.3726</ele>
        <time>2025-03-27T14:47:43Z</time>
      </trkpt>
      <trkpt lat="48.44677" lon="7.13891">
        <ele>840.3726</ele>
        <time>2025-03-27T14:47:49Z</time>
      </trkpt>
      <trkpt lat="48.44679" lon="7.13898">
        <ele>840.3726</ele>
        <time>2025-03-27T14:47:53Z</time>
      </trkpt>
      <trkpt lat="48.44681" lon="7.13905">
        <ele>840.3726</ele>
        <time>2025-03-27T14:47:58Z</time>
      </trkpt>
      <trkpt lat="48.44682" lon="7.13913">
        <ele>840.3726</ele>
        <time>2025-03-27T14:48:02Z</time>
      </trkpt>
      <trkpt lat="48.44681" lon="7.13921">
        <ele>840.3726</ele>
        <time>2025-03-27T14:48:07Z</time>
      </trkpt>
      <trkpt lat="48.44682" lon="7.13929">
        <ele>840.3726</ele>
        <time>2025-03-27T14:48:13Z</time>
      </trkpt>
      <trkpt lat="48.44682" lon="7.13936">
        <ele>840.3726</ele>
        <time>2025-03-27T14:48:16Z</time>
      </trkpt>
      <trkpt lat="48.44684" lon="7.13943">
        <ele>840.3726</ele>
        <time>2025-03-27T14:48:22Z</time>
      </trkpt>
      <trkpt lat="48.44685" lon="7.1395">
        <ele>840.3726</ele>
        <time>2025-03-27T14:48:27Z</time>
      </trkpt>
      <trkpt lat="48.44687" lon="7.13959">
        <ele>840.3726</ele>
        <time>2025-03-27T14:48:32Z</time>
      </trkpt>
      <trkpt lat="48.44687" lon="7.13967">
        <ele>840.3726</ele>
        <time>2025-03-27T14:48:36Z</time>
      </trkpt>
      <trkpt lat="48.44687" lon="7.13975">
        <ele>840.3726</ele>
        <time>2025-03-27T14:48:42Z</time>
      </trkpt>
      <trkpt lat="48.44687" lon="7.13981">
        <ele>840.3726</ele>
        <time>2025-03-27T14:48:47Z</time>
      </trkpt>
      <trkpt lat="48.44685" lon="7.1399">
        <ele>840.3726</ele>
        <time>2025-03-27T14:48:52Z</time>
      </trkpt>
      <trkpt lat="48.44684" lon="7.13997">
        <ele>840.3726</ele>
        <time>2025-03-27T14:48:57Z</time>
      </trkpt>
      <trkpt lat="48.44684" lon="7.14004">
        <ele>840.3726</ele>
        <time>2025-03-27T14:49:02Z</time>
      </trkpt>
      <trkpt lat="48.44687" lon="7.1401">
        <ele>840.3726</ele>
        <time>2025-03-27T14:49:07Z</time>
      </trkpt>
      <trkpt lat="48.44685" lon="7.14017">
        <ele>840.3726</ele>
        <time>2025-03-27T14:49:12Z</time>
      </trkpt>
      <trkpt lat="48.44685" lon="7.14025">
        <ele>840.3726</ele>
        <time>2025-03-27T14:49:18Z</time>
      </trkpt>
      <trkpt lat="48.44686" lon="7.14033">
        <ele>840.3726</ele>
        <time>2025-03-27T14:49:29Z</time>
      </trkpt>
      <trkpt lat="48.44686" lon="7.1404">
        <ele>840.3726</ele>
        <time>2025-03-27T14:49:33Z</time>
      </trkpt>
      <trkpt lat="48.44685" lon="7.14047">
        <ele>840.3726</ele>
        <time>2025-03-27T14:49:39Z</time>
      </trkpt>
      <trkpt lat="48.44685" lon="7.14055">
        <ele>840.3726</ele>
        <time>2025-03-27T14:49:44Z</time>
      </trkpt>
      <trkpt lat="48.44685" lon="7.14063">
        <ele>840.3726</ele>
        <time>2025-03-27T14:49:50Z</time>
      </trkpt>
      <trkpt lat="48.44685" lon="7.1407">
        <ele>840.3726</ele>
        <time>2025-03-27T14:49:54Z</time>
      </trkpt>
      <trkpt lat="48.44686" lon="7.14078">
        <ele>840.3726</ele>
        <time>2025-03-27T14:50:00Z</time>
      </trkpt>
      <trkpt lat="48.44688" lon="7.14085">
        <ele>840.3726</ele>
        <time>2025-03-27T14:50:05Z</time>
      </trkpt>
      <trkpt lat="48.44692" lon="7.1409">
        <ele>840.3726</ele>
        <time>2025-03-27T14:50:11Z</time>
      </trkpt>
      <trkpt lat="48.44697" lon="7.1409">
        <ele>840.3726</ele>
        <time>2025-03-27T14:50:18Z</time>
      </trkpt>
      <trkpt lat="48.44702" lon="7.14086">
        <ele>840.3726</ele>
        <time>2025-03-27T14:50:25Z</time>
      </trkpt>
      <trkpt lat="48.44706" lon="7.14082">
        <ele>840.3726</ele>
        <time>2025-03-27T14:50:36Z</time>
      </trkpt>
      <trkpt lat="48.44711" lon="7.14079">
        <ele>840.3726</ele>
        <time>2025-03-27T14:50:44Z</time>
      </trkpt>
      <trkpt lat="48.44715" lon="7.14075">
        <ele>840.3726</ele>
        <time>2025-03-27T14:50:53Z</time>
      </trkpt>
      <trkpt lat="48.44718" lon="7.14071">
        <ele>840.3726</ele>
        <time>2025-03-27T14:51:00Z</time>
      </trkpt>
      <trkpt lat="48.44722" lon="7.14067">
        <ele>840.3726</ele>
        <time>2025-03-27T14:51:07Z</time>
      </trkpt>
      <trkpt lat="48.44727" lon="7.14062">
        <ele>840.3726</ele>
        <time>2025-03-27T14:51:13Z</time>
      </trkpt>
      <trkpt lat="48.44731" lon="7.14059">
        <ele>840.3726</ele>
        <time>2025-03-27T14:51:18Z</time>
      </trkpt>
      <trkpt lat="48.44735" lon="7.14055">
        <ele>840.3726</ele>
        <time>2025-03-27T14:51:24Z</time>
      </trkpt>
      <trkpt lat="48.44738" lon="7.1405">
        <ele>840.3726</ele>
        <time>2025-03-27T14:51:30Z</time>
      </trkpt>
      <trkpt lat="48.44742" lon="7.14046">
        <ele>840.3726</ele>
        <time>2025-03-27T14:51:37Z</time>
      </trkpt>
      <trkpt lat="48.44746" lon="7.14042">
        <ele>840.3726</ele>
        <time>2025-03-27T14:51:44Z</time>
      </trkpt>
      <trkpt lat="48.44751" lon="7.1404">
        <ele>840.3726</ele>
        <time>2025-03-27T14:52:06Z</time>
      </trkpt>
      <trkpt lat="48.44756" lon="7.14038">
        <ele>840.3726</ele>
        <time>2025-03-27T14:52:18Z</time>
      </trkpt>
      <trkpt lat="48.44756" lon="7.1403">
        <ele>840.3726</ele>
        <time>2025-03-27T14:52:52Z</time>
      </trkpt>
      <trkpt lat="48.44761" lon="7.14029">
        <ele>840.3726</ele>
        <time>2025-03-27T14:52:58Z</time>
      </trkpt>
      <trkpt lat="48.44764" lon="7.14023">
        <ele>837.95416</ele>
        <time>2025-03-27T14:53:08Z</time>
      </trkpt>
      <trkpt lat="48.44766" lon="7.14017">
        <ele>835.5357</ele>
        <time>2025-03-27T14:53:16Z</time>
      </trkpt>
      <trkpt lat="48.44771" lon="7.14015">
        <ele>833.1173</ele>
        <time>2025-03-27T14:53:34Z</time>
      </trkpt>
      <trkpt lat="48.44776" lon="7.14012">
        <ele>830.69885</ele>
        <time>2025-03-27T14:54:01Z</time>
      </trkpt>
      <trkpt lat="48.4478" lon="7.14012">
        <ele>828.2804</ele>
        <time>2025-03-27T14:54:03Z</time>
      </trkpt>
      <trkpt lat="48.4478" lon="7.14005">
        <ele>828.2804</ele>
        <time>2025-03-27T14:54:10Z</time>
      </trkpt>
      <trkpt lat="48.44775" lon="7.14004">
        <ele>828.2804</ele>
        <time>2025-03-27T14:54:12Z</time>
      </trkpt>
      <trkpt lat="48.44775" lon="7.13997">
        <ele>828.2804</ele>
        <time>2025-03-27T14:54:16Z</time>
      </trkpt>
      <trkpt lat="48.4478" lon="7.13994">
        <ele>828.2804</ele>
        <time>2025-03-27T14:54:22Z</time>
      </trkpt>
      <trkpt lat="48.44783" lon="7.1399">
        <ele>828.2804</ele>
        <time>2025-03-27T14:54:38Z</time>
      </trkpt>
      <trkpt lat="48.44787" lon="7.13984">
        <ele>828.2804</ele>
        <time>2025-03-27T14:54:44Z</time>
      </trkpt>
      <trkpt lat="48.44791" lon="7.13979">
        <ele>828.2804</ele>
        <time>2025-03-27T14:54:52Z</time>
      </trkpt>
      <trkpt lat="48.44792" lon="7.13972">
        <ele>826.1598</ele>
        <time>2025-03-27T14:55:04Z</time>
      </trkpt>
      <trkpt lat="48.44796" lon="7.13969">
        <ele>824.0392</ele>
        <time>2025-03-27T14:55:12Z</time>
      </trkpt>
      <trkpt lat="48.44801" lon="7.13962">
        <ele>821.9186</ele>
        <time>2025-03-27T14:55:23Z</time>
      </trkpt>
      <trkpt lat="48.44803" lon="7.13956">
        <ele>819.798</ele>
        <time>2025-03-27T14:55:35Z</time>
      </trkpt>
      <trkpt lat="48.44806" lon="7.1395">
        <ele>817.67737</ele>
        <time>2025-03-27T14:55:46Z</time>
      </trkpt>
      <trkpt lat="48.44811" lon="7.13949">
        <ele>817.67737</ele>
        <time>2025-03-27T14:56:07Z</time>
      </trkpt>
      <trkpt lat="48.44813" lon="7.13942">
        <ele>817.67737</ele>
        <time>2025-03-27T14:56:19Z</time>
      </trkpt>
      <trkpt lat="48.44815" lon="7.13937">
        <ele>817.67737</ele>
        <time>2025-03-27T14:56:31Z</time>
      </trkpt>
      <trkpt lat="48.44816" lon="7.1393">
        <ele>817.67737</ele>
        <time>2025-03-27T14:56:39Z</time>
      </trkpt>
      <trkpt lat="48.44821" lon="7.13927">
        <ele>817.67737</ele>
        <time>2025-03-27T14:56:46Z</time>
      </trkpt>
      <trkpt lat="48.4482" lon="7.1392">
        <ele>817.67737</ele>
        <time>2025-03-27T14:57:00Z</time>
      </trkpt>
      <trkpt lat="48.44824" lon="7.13914">
        <ele>817.67737</ele>
        <time>2025-03-27T14:57:08Z</time>
      </trkpt>
      <trkpt lat="48.44828" lon="7.1391">
        <ele>817.67737</ele>
        <time>2025-03-27T14:57:12Z</time>
      </trkpt>
      <trkpt lat="48.44832" lon="7.13912">
        <ele>817.67737</ele>
        <time>2025-03-27T14:57:18Z</time>
      </trkpt>
      <trkpt lat="48.44833" lon="7.13905">
        <ele>817.67737</ele>
        <time>2025-03-27T14:57:37Z</time>
      </trkpt>
      <trkpt lat="48.44837" lon="7.139">
        <ele>817.67737</ele>
        <time>2025-03-27T14:57:45Z</time>
      </trkpt>
      <trkpt lat="48.4484" lon="7.13894">
        <ele>817.67737</ele>
        <time>2025-03-27T14:58:07Z</time>
      </trkpt>
      <trkpt lat="48.44843" lon="7.13889">
        <ele>817.67737</ele>
        <time>2025-03-27T14:58:16Z</time>
      </trkpt>
      <trkpt lat="48.44846" lon="7.1388">
        <ele>817.67737</ele>
        <time>2025-03-27T14:58:46Z</time>
      </trkpt>
      <trkpt lat="48.44852" lon="7.13874">
        <ele>817.67737</ele>
        <time>2025-03-27T14:58:55Z</time>
      </trkpt>
      <trkpt lat="48.44848" lon="7.13875">
        <ele>817.67737</ele>
        <time>2025-03-27T14:58:57Z</time>
      </trkpt>
      <trkpt lat="48.44852" lon="7.13873">
        <ele>817.67737</ele>
        <time>2025-03-27T14:59:10Z</time>
      </trkpt>
      <trkpt lat="48.44856" lon="7.13869">
        <ele>817.67737</ele>
        <time>2025-03-27T14:59:28Z</time>
      </trkpt>
      <trkpt lat="48.44861" lon="7.13865">
        <ele>817.67737</ele>
        <time>2025-03-27T14:59:34Z</time>
      </trkpt>
      <trkpt lat="48.44858" lon="7.13859">
        <ele>817.67737</ele>
        <time>2025-03-27T14:59:53Z</time>
      </trkpt>
      <trkpt lat="48.44863" lon="7.13856">
        <ele>817.67737</ele>
        <time>2025-03-27T15:00:02Z</time>
      </trkpt>
      <trkpt lat="48.44862" lon="7.13847">
        <ele>817.67737</ele>
        <time>2025-03-27T15:00:10Z</time>
      </trkpt>
      <trkpt lat="48.44867" lon="7.13846">
        <ele>817.67737</ele>
        <time>2025-03-27T15:00:16Z</time>
      </trkpt>
      <trkpt lat="48.44871" lon="7.13841">
        <ele>817.67737</ele>
        <time>2025-03-27T15:00:25Z</time>
      </trkpt>
      <trkpt lat="48.44876" lon="7.13841">
        <ele>817.67737</ele>
        <time>2025-03-27T15:00:30Z</time>
      </trkpt>
      <trkpt lat="48.44878" lon="7.13834">
        <ele>815.57715</ele>
        <time>2025-03-27T15:00:51Z</time>
      </trkpt>
      <trkpt lat="48.44882" lon="7.13833">
        <ele>813.4769</ele>
        <time>2025-03-27T15:00:56Z</time>
      </trkpt>
      <trkpt lat="48.44886" lon="7.13831">
        <ele>811.3768</ele>
        <time>2025-03-27T15:01:06Z</time>
      </trkpt>
      <trkpt lat="48.4489" lon="7.13824">
        <ele>809.27655</ele>
        <time>2025-03-27T15:01:48Z</time>
      </trkpt>
      <trkpt lat="48.44895" lon="7.13817">
        <ele>807.17633</ele>
        <time>2025-03-27T15:02:09Z</time>
      </trkpt>
      <trkpt lat="48.44902" lon="7.13814">
        <ele>807.17633</ele>
        <time>2025-03-27T15:02:25Z</time>
      </trkpt>
      <trkpt lat="48.44907" lon="7.13814">
        <ele>807.17633</ele>
        <time>2025-03-27T15:02:36Z</time>
      </trkpt>
      <trkpt lat="48.44911" lon="7.13809">
        <ele>807.17633</ele>
        <time>2025-03-27T15:02:54Z</time>
      </trkpt>
      <trkpt lat="48.44915" lon="7.13806">
        <ele>807.17633</ele>
        <time>2025-03-27T15:03:05Z</time>
      </trkpt>
      <trkpt lat="48.44919" lon="7.13803">
        <ele>807.17633</ele>
        <time>2025-03-27T15:03:08Z</time>
      </trkpt>
      <trkpt lat="48.44924" lon="7.138">
        <ele>807.17633</ele>
        <time>2025-03-27T15:03:18Z</time>
      </trkpt>
      <trkpt lat="48.44928" lon="7.13797">
        <ele>807.17633</ele>
        <time>2025-03-27T15:03:29Z</time>
      </trkpt>
      <trkpt lat="48.44933" lon="7.13797">
        <ele>807.17633</ele>
        <time>2025-03-27T15:03:38Z</time>
      </trkpt>
      <trkpt lat="48.44939" lon="7.13797">
        <ele>807.17633</ele>
        <time>2025-03-27T15:04:41Z</time>
      </trkpt>
      <trkpt lat="48.44942" lon="7.13792">
        <ele>807.17633</ele>
        <time>2025-03-27T15:04:55Z</time>
      </trkpt>
      <trkpt lat="48.44947" lon="7.13792">
        <ele>807.17633</ele>
        <time>2025-03-27T15:05:01Z</time>
      </trkpt>
      <trkpt lat="48.44951" lon="7.13789">
        <ele>807.17633</ele>
        <time>2025-03-27T15:05:14Z</time>
      </trkpt>
      <trkpt lat="48.44955" lon="7.1379">
        <ele>807.17633</ele>
        <time>2025-03-27T15:05:24Z</time>
      </trkpt>
      <trkpt lat="48.4495" lon="7.13792">
        <ele>807.17633</ele>
        <time>2025-03-27T15:05:32Z</time>
      </trkpt>
      <trkpt lat="48.44955" lon="7.13791">
        <ele>804.9189</ele>
        <time>2025-03-27T15:05:44Z</time>
      </trkpt>
      <trkpt lat="48.4496" lon="7.1379">
        <ele>802.66144</ele>
        <time>2025-03-27T15:05:51Z</time>
      </trkpt>
      <trkpt lat="48.44955" lon="7.13792">
        <ele>800.40393</ele>
        <time>2025-03-27T15:05:54Z</time>
      </trkpt>
      <trkpt lat="48.44959" lon="7.13788">
        <ele>798.1465</ele>
        <time>2025-03-27T15:05:59Z</time>
      </trkpt>
      <trkpt lat="48.44964" lon="7.13788">
        <ele>795.88904</ele>
        <time>2025-03-27T15:06:17Z</time>
      </trkpt>
      <trkpt lat="48.44969" lon="7.13786">
        <ele>795.88904</ele>
        <time>2025-03-27T15:06:31Z</time>
      </trkpt>
      <trkpt lat="48.44976" lon="7.13783">
        <ele>795.88904</ele>
        <time>2025-03-27T15:06:37Z</time>
      </trkpt>
      <trkpt lat="48.4498" lon="7.13779">
        <ele>795.88904</ele>
        <time>2025-03-27T15:06:43Z</time>
      </trkpt>
      <trkpt lat="48.44983" lon="7.13775">
        <ele>795.88904</ele>
        <time>2025-03-27T15:06:47Z</time>
      </trkpt>
      <trkpt lat="48.44988" lon="7.13778">
        <ele>795.88904</ele>
        <time>2025-03-27T15:06:54Z</time>
      </trkpt>
      <trkpt lat="48.44991" lon="7.13772">
        <ele>795.88904</ele>
        <time>2025-03-27T15:07:01Z</time>
      </trkpt>
      <trkpt lat="48.44997" lon="7.13771">
        <ele>795.88904</ele>
        <time>2025-03-27T15:07:06Z</time>
      </trkpt>
      <trkpt lat="48.45001" lon="7.13772">
        <ele>795.88904</ele>
        <time>2025-03-27T15:07:12Z</time>
      </trkpt>
      <trkpt lat="48.45006" lon="7.13769">
        <ele>795.88904</ele>
        <time>2025-03-27T15:07:21Z</time>
      </trkpt>
      <trkpt lat="48.45011" lon="7.13767">
        <ele>795.88904</ele>
        <time>2025-03-27T15:07:58Z</time>
      </trkpt>
      <trkpt lat="48.45015" lon="7.1377">
        <ele>795.88904</ele>
        <time>2025-03-27T15:08:07Z</time>
      </trkpt>
      <trkpt lat="48.45021" lon="7.13767">
        <ele>795.88904</ele>
        <time>2025-03-27T15:08:12Z</time>
      </trkpt>
      <trkpt lat="48.45026" lon="7.13766">
        <ele>795.88904</ele>
        <time>2025-03-27T15:08:19Z</time>
      </trkpt>
      <trkpt lat="48.45031" lon="7.13766">
        <ele>795.88904</ele>
        <time>2025-03-27T15:08:23Z</time>
      </trkpt>
      <trkpt lat="48.45036" lon="7.13768">
        <ele>795.88904</ele>
        <time>2025-03-27T15:08:31Z</time>
      </trkpt>
      <trkpt lat="48.45042" lon="7.13766">
        <ele>795.88904</ele>
        <time>2025-03-27T15:08:37Z</time>
      </trkpt>
      <trkpt lat="48.45046" lon="7.13761">
        <ele>795.88904</ele>
        <time>2025-03-27T15:08:42Z</time>
      </trkpt>
      <trkpt lat="48.45052" lon="7.13761">
        <ele>795.88904</ele>
        <time>2025-03-27T15:08:48Z</time>
      </trkpt>
      <trkpt lat="48.45057" lon="7.13764">
        <ele>795.88904</ele>
        <time>2025-03-27T15:08:54Z</time>
      </trkpt>
      <trkpt lat="48.45062" lon="7.13765">
        <ele>795.88904</ele>
        <time>2025-03-27T15:09:01Z</time>
      </trkpt>
      <trkpt lat="48.45068" lon="7.13764">
        <ele>795.88904</ele>
        <time>2025-03-27T15:09:09Z</time>
      </trkpt>
      <trkpt lat="48.45073" lon="7.13764">
        <ele>795.88904</ele>
        <time>2025-03-27T15:09:14Z</time>
      </trkpt>
      <trkpt lat="48.45077" lon="7.13767">
        <ele>795.88904</ele>
        <time>2025-03-27T15:09:21Z</time>
      </trkpt>
      <trkpt lat="48.45081" lon="7.13765">
        <ele>795.88904</ele>
        <time>2025-03-27T15:10:48Z</time>
      </trkpt>
      <trkpt lat="48.45082" lon="7.13772">
        <ele>795.88904</ele>
        <time>2025-03-27T15:11:36Z</time>
      </trkpt>
      <trkpt lat="48.45079" lon="7.13779">
        <ele>795.88904</ele>
        <time>2025-03-27T15:11:44Z</time>
      </trkpt>
      <trkpt lat="48.45076" lon="7.13784">
        <ele>795.88904</ele>
        <time>2025-03-27T15:11:51Z</time>
      </trkpt>
      <trkpt lat="48.45072" lon="7.13789">
        <ele>795.88904</ele>
        <time>2025-03-27T15:12:04Z</time>
      </trkpt>
      <trkpt lat="48.45067" lon="7.1379">
        <ele>795.88904</ele>
        <time>2025-03-27T15:13:17Z</time>
      </trkpt>
      <trkpt lat="48.45062" lon="7.13792">
        <ele>795.88904</ele>
        <time>2025-03-27T15:13:31Z</time>
      </trkpt>
      <trkpt lat="48.45056" lon="7.13794">
        <ele>795.88904</ele>
        <time>2025-03-27T15:14:08Z</time>
      </trkpt>
      <trkpt lat="48.45051" lon="7.13798">
        <ele>795.88904</ele>
        <time>2025-03-27T15:14:16Z</time>
      </trkpt>
      <trkpt lat="48.45047" lon="7.13798">
        <ele>795.88904</ele>
        <time>2025-03-27T15:14:21Z</time>
      </trkpt>
      <trkpt lat="48.45042" lon="7.13801">
        <ele>795.88904</ele>
        <time>2025-03-27T15:14:32Z</time>
      </trkpt>
      <trkpt lat="48.45039" lon="7.13808">
        <ele>795.88904</ele>
        <time>2025-03-27T15:14:59Z</time>
      </trkpt>
      <trkpt lat="48.45035" lon="7.13807">
        <ele>795.88904</ele>
        <time>2025-03-27T15:15:12Z</time>
      </trkpt>
      <trkpt lat="48.45031" lon="7.13812">
        <ele>793.39136</ele>
        <time>2025-03-27T15:15:17Z</time>
      </trkpt>
      <trkpt lat="48.45026" lon="7.1381">
        <ele>790.89374</ele>
        <time>2025-03-27T15:15:37Z</time>
      </trkpt>
      <trkpt lat="48.45025" lon="7.13817">
        <ele>788.39606</ele>
        <time>2025-03-27T15:15:54Z</time>
      </trkpt>
      <trkpt lat="48.45022" lon="7.13823">
        <ele>785.89844</ele>
        <time>2025-03-27T15:16:12Z</time>
      </trkpt>
      <trkpt lat="48.45017" lon="7.13826">
        <ele>783.40076</ele>
        <time>2025-03-27T15:16:19Z</time>
      </trkpt>
      <trkpt lat="48.45016" lon="7.13834">
        <ele>783.40076</ele>
        <time>2025-03-27T15:16:28Z</time>
      </trkpt>
      <trkpt lat="48.45013" lon="7.13839">
        <ele>783.40076</ele>
        <time>2025-03-27T15:16:35Z</time>
      </trkpt>
      <trkpt lat="48.4501" lon="7.13845">
        <ele>783.40076</ele>
        <time>2025-03-27T15:16:46Z</time>
      </trkpt>
      <trkpt lat="48.45013" lon="7.13852">
        <ele>781.29694</ele>
        <time>2025-03-27T15:16:55Z</time>
      </trkpt>
      <trkpt lat="48.45012" lon="7.13859">
        <ele>779.1931</ele>
        <time>2025-03-27T15:16:59Z</time>
      </trkpt>
      <trkpt lat="48.45016" lon="7.13863">
        <ele>777.0893</ele>
        <time>2025-03-27T15:17:17Z</time>
      </trkpt>
      <trkpt lat="48.4502" lon="7.1386">
        <ele>774.9855</ele>
        <time>2025-03-27T15:17:21Z</time>
      </trkpt>
      <trkpt lat="48.45023" lon="7.13867">
        <ele>772.88165</ele>
        <time>2025-03-27T15:17:26Z</time>
      </trkpt>
      <trkpt lat="48.45024" lon="7.13874">
        <ele>772.88165</ele>
        <time>2025-03-27T15:17:37Z</time>
      </trkpt>
      <trkpt lat="48.45028" lon="7.13876">
        <ele>772.88165</ele>
        <time>2025-03-27T15:17:41Z</time>
      </trkpt>
      <trkpt lat="48.45031" lon="7.13881">
        <ele>772.88165</ele>
        <time>2025-03-27T15:17:50Z</time>
      </trkpt>
      <trkpt lat="48.45036" lon="7.13885">
        <ele>772.88165</ele>
        <time>2025-03-27T15:17:56Z</time>
      </trkpt>
      <trkpt lat="48.4504" lon="7.1389">
        <ele>772.88165</ele>
        <time>2025-03-27T15:18:01Z</time>
      </trkpt>
      <trkpt lat="48.45042" lon="7.13896">
        <ele>772.88165</ele>
        <time>2025-03-27T15:18:07Z</time>
      </trkpt>
      <trkpt lat="48.45047" lon="7.13899">
        <ele>772.88165</ele>
        <time>2025-03-27T15:18:13Z</time>
      </trkpt>
      <trkpt lat="48.4505" lon="7.13905">
        <ele>772.88165</ele>
        <time>2025-03-27T15:18:20Z</time>
      </trkpt>
      <trkpt lat="48.45054" lon="7.13912">
        <ele>772.88165</ele>
        <time>2025-03-27T15:18:25Z</time>
      </trkpt>
      <trkpt lat="48.45057" lon="7.13917">
        <ele>770.8292</ele>
        <time>2025-03-27T15:18:31Z</time>
      </trkpt>
      <trkpt lat="48.4506" lon="7.13921">
        <ele>768.7768</ele>
        <time>2025-03-27T15:18:37Z</time>
      </trkpt>
      <trkpt lat="48.45064" lon="7.13926">
        <ele>766.72437</ele>
        <time>2025-03-27T15:18:45Z</time>
      </trkpt>
      <trkpt lat="48.45068" lon="7.13931">
        <ele>764.67194</ele>
        <time>2025-03-27T15:18:52Z</time>
      </trkpt>
      <trkpt lat="48.45072" lon="7.13936">
        <ele>762.6195</ele>
        <time>2025-03-27T15:18:57Z</time>
      </trkpt>
      <trkpt lat="48.45076" lon="7.13941">
        <ele>762.6195</ele>
        <time>2025-03-27T15:19:03Z</time>
      </trkpt>
      <trkpt lat="48.4508" lon="7.13945">
        <ele>762.6195</ele>
        <time>2025-03-27T15:19:12Z</time>
      </trkpt>
      <trkpt lat="48.45084" lon="7.13951">
        <ele>762.6195</ele>
        <time>2025-03-27T15:19:18Z</time>
      </trkpt>
      <trkpt lat="48.45087" lon="7.13955">
        <ele>762.6195</ele>
        <time>2025-03-27T15:19:25Z</time>
      </trkpt>
      <trkpt lat="48.45091" lon="7.1396">
        <ele>762.6195</ele>
        <time>2025-03-27T15:19:31Z</time>
      </trkpt>
      <trkpt lat="48.45094" lon="7.13964">
        <ele>762.6195</ele>
        <time>2025-03-27T15:19:35Z</time>
      </trkpt>
      <trkpt lat="48.45099" lon="7.13968">
        <ele>762.6195</ele>
        <time>2025-03-27T15:19:40Z</time>
      </trkpt>
      <trkpt lat="48.45103" lon="7.13973">
        <ele>762.6195</ele>
        <time>2025-03-27T15:19:46Z</time>
      </trkpt>
      <trkpt lat="48.45108" lon="7.13975">
        <ele>760.53754</ele>
        <time>2025-03-27T15:19:53Z</time>
      </trkpt>
      <trkpt lat="48.45112" lon="7.1398">
        <ele>758.45557</ele>
        <time>2025-03-27T15:19:58Z</time>
      </trkpt>
      <trkpt lat="48.45115" lon="7.13986">
        <ele>756.37354</ele>
        <time>2025-03-27T15:20:04Z</time>
      </trkpt>
      <trkpt lat="48.45118" lon="7.13991">
        <ele>754.29156</ele>
        <time>2025-03-27T15:20:10Z</time>
      </trkpt>
      <trkpt lat="48.45121" lon="7.13997">
        <ele>752.2096</ele>
        <time>2025-03-27T15:20:15Z</time>
      </trkpt>
      <trkpt lat="48.45124" lon="7.14003">
        <ele>752.2096</ele>
        <time>2025-03-27T15:20:20Z</time>
      </trkpt>
      <trkpt lat="48.45127" lon="7.14008">
        <ele>752.2096</ele>
        <time>2025-03-27T15:20:27Z</time>
      </trkpt>
      <trkpt lat="48.4513" lon="7.14014">
        <ele>752.2096</ele>
        <time>2025-03-27T15:20:39Z</time>
      </trkpt>
      <trkpt lat="48.45134" lon="7.1402">
        <ele>752.2096</ele>
        <time>2025-03-27T15:20:41Z</time>
      </trkpt>
      <trkpt lat="48.45137" lon="7.14026">
        <ele>752.2096</ele>
        <time>2025-03-27T15:20:47Z</time>
      </trkpt>
      <trkpt lat="48.4514" lon="7.14031">
        <ele>752.2096</ele>
        <time>2025-03-27T15:20:55Z</time>
      </trkpt>
      <trkpt lat="48.45143" lon="7.14037">
        <ele>752.2096</ele>
        <time>2025-03-27T15:21:02Z</time>
      </trkpt>
      <trkpt lat="48.45146" lon="7.14043">
        <ele>750.20325</ele>
        <time>2025-03-27T15:21:09Z</time>
      </trkpt>
      <trkpt lat="48.4515" lon="7.14049">
        <ele>748.1969</ele>
        <time>2025-03-27T15:21:15Z</time>
      </trkpt>
      <trkpt lat="48.45153" lon="7.14055">
        <ele>746.1905</ele>
        <time>2025-03-27T15:21:20Z</time>
      </trkpt>
      <trkpt lat="48.45156" lon="7.14059">
        <ele>744.18414</ele>
        <time>2025-03-27T15:21:25Z</time>
      </trkpt>
      <trkpt lat="48.4516" lon="7.14064">
        <ele>742.1778</ele>
        <time>2025-03-27T15:21:29Z</time>
      </trkpt>
      <trkpt lat="48.45165" lon="7.14069">
        <ele>742.1778</ele>
        <time>2025-03-27T15:21:34Z</time>
      </trkpt>
      <trkpt lat="48.45168" lon="7.14074">
        <ele>742.1778</ele>
        <time>2025-03-27T15:21:39Z</time>
      </trkpt>
      <trkpt lat="48.45172" lon="7.14079">
        <ele>742.1778</ele>
        <time>2025-03-27T15:21:44Z</time>
      </trkpt>
      <trkpt lat="48.45176" lon="7.14084">
        <ele>742.1778</ele>
        <time>2025-03-27T15:21:49Z</time>
      </trkpt>
      <trkpt lat="48.45179" lon="7.1409">
        <ele>742.1778</ele>
        <time>2025-03-27T15:21:55Z</time>
      </trkpt>
      <trkpt lat="48.45182" lon="7.14095">
        <ele>742.1778</ele>
        <time>2025-03-27T15:22:00Z</time>
      </trkpt>
      <trkpt lat="48.45184" lon="7.14102">
        <ele>742.1778</ele>
        <time>2025-03-27T15:22:06Z</time>
      </trkpt>
      <trkpt lat="48.45186" lon="7.14109">
        <ele>742.1778</ele>
        <time>2025-03-27T15:22:12Z</time>
      </trkpt>
      <trkpt lat="48.45189" lon="7.14116">
        <ele>742.1778</ele>
        <time>2025-03-27T15:22:18Z</time>
      </trkpt>
      <trkpt lat="48.45191" lon="7.14123">
        <ele>742.1778</ele>
        <time>2025-03-27T15:22:24Z</time>
      </trkpt>
      <trkpt lat="48.45192" lon="7.1413">
        <ele>742.1778</ele>
        <time>2025-03-27T15:22:33Z</time>
      </trkpt>
      <trkpt lat="48.45195" lon="7.14136">
        <ele>742.1778</ele>
        <time>2025-03-27T15:22:40Z</time>
      </trkpt>
      <trkpt lat="48.45198" lon="7.14141">
        <ele>742.1778</ele>
        <time>2025-03-27T15:22:47Z</time>
      </trkpt>
      <trkpt lat="48.452" lon="7.14148">
        <ele>742.1778</ele>
        <time>2025-03-27T15:22:55Z</time>
      </trkpt>
      <trkpt lat="48.45203" lon="7.14154">
        <ele>740.135</ele>
        <time>2025-03-27T15:23:01Z</time>
      </trkpt>
      <trkpt lat="48.45206" lon="7.14161">
        <ele>738.0923</ele>
        <time>2025-03-27T15:23:06Z</time>
      </trkpt>
      <trkpt lat="48.45209" lon="7.14167">
        <ele>736.0495</ele>
        <time>2025-03-27T15:23:12Z</time>
      </trkpt>
      <trkpt lat="48.45212" lon="7.14173">
        <ele>734.0068</ele>
        <time>2025-03-27T15:23:21Z</time>
      </trkpt>
      <trkpt lat="48.45215" lon="7.14179">
        <ele>731.964</ele>
        <time>2025-03-27T15:23:29Z</time>
      </trkpt>
      <trkpt lat="48.45218" lon="7.14186">
        <ele>731.964</ele>
        <time>2025-03-27T15:23:35Z</time>
      </trkpt>
      <trkpt lat="48.45221" lon="7.14193">
        <ele>731.964</ele>
        <time>2025-03-27T15:23:40Z</time>
      </trkpt>
      <trkpt lat="48.45224" lon="7.14198">
        <ele>731.964</ele>
        <time>2025-03-27T15:23:45Z</time>
      </trkpt>
      <trkpt lat="48.45227" lon="7.14204">
        <ele>731.964</ele>
        <time>2025-03-27T15:23:52Z</time>
      </trkpt>
      <trkpt lat="48.4523" lon="7.14211">
        <ele>731.964</ele>
        <time>2025-03-27T15:23:58Z</time>
      </trkpt>
      <trkpt lat="48.45234" lon="7.14217">
        <ele>729.94</ele>
        <time>2025-03-27T15:24:04Z</time>
      </trkpt>
      <trkpt lat="48.45236" lon="7.14223">
        <ele>727.916</ele>
        <time>2025-03-27T15:24:10Z</time>
      </trkpt>
      <trkpt lat="48.45239" lon="7.1423">
        <ele>725.892</ele>
        <time>2025-03-27T15:24:16Z</time>
      </trkpt>
      <trkpt lat="48.45242" lon="7.14235">
        <ele>723.86804</ele>
        <time>2025-03-27T15:24:22Z</time>
      </trkpt>
      <trkpt lat="48.45245" lon="7.14241">
        <ele>721.84406</ele>
        <time>2025-03-27T15:24:27Z</time>
      </trkpt>
      <trkpt lat="48.45248" lon="7.14247">
        <ele>721.84406</ele>
        <time>2025-03-27T15:24:33Z</time>
      </trkpt>
      <trkpt lat="48.45251" lon="7.14253">
        <ele>721.84406</ele>
        <time>2025-03-27T15:24:40Z</time>
      </trkpt>
      <trkpt lat="48.45255" lon="7.14259">
        <ele>721.84406</ele>
        <time>2025-03-27T15:24:46Z</time>
      </trkpt>
      <trkpt lat="48.45258" lon="7.14264">
        <ele>721.84406</ele>
        <time>2025-03-27T15:24:51Z</time>
      </trkpt>
      <trkpt lat="48.4526" lon="7.1427">
        <ele>721.84406</ele>
        <time>2025-03-27T15:24:56Z</time>
      </trkpt>
      <trkpt lat="48.45263" lon="7.14275">
        <ele>721.84406</ele>
        <time>2025-03-27T15:25:01Z</time>
      </trkpt>
      <trkpt lat="48.45266" lon="7.14281">
        <ele>721.84406</ele>
        <time>2025-03-27T15:25:07Z</time>
      </trkpt>
      <trkpt lat="48.4527" lon="7.14287">
        <ele>721.84406</ele>
        <time>2025-03-27T15:25:14Z</time>
      </trkpt>
      <trkpt lat="48.45274" lon="7.14292">
        <ele>719.7952</ele>
        <time>2025-03-27T15:25:21Z</time>
      </trkpt>
      <trkpt lat="48.45277" lon="7.14297">
        <ele>717.74646</ele>
        <time>2025-03-27T15:25:30Z</time>
      </trkpt>
      <trkpt lat="48.45281" lon="7.14302">
        <ele>715.69763</ele>
        <time>2025-03-27T15:25:50Z</time>
      </trkpt>
      <trkpt lat="48.45284" lon="7.14306">
        <ele>713.64886</ele>
        <time>2025-03-27T15:26:09Z</time>
      </trkpt>
      <trkpt lat="48.45285" lon="7.14313">
        <ele>711.60004</ele>
        <time>2025-03-27T15:26:15Z</time>
      </trkpt>
      <trkpt lat="48.45289" lon="7.14318">
        <ele>711.60004</ele>
        <time>2025-03-27T15:26:21Z</time>
      </trkpt>
      <trkpt lat="48.45293" lon="7.14321">
        <ele>711.60004</ele>
        <time>2025-03-27T15:26:32Z</time>
      </trkpt>
      <trkpt lat="48.45298" lon="7.14325">
        <ele>711.60004</ele>
        <time>2025-03-27T15:26:38Z</time>
      </trkpt>
      <trkpt lat="48.45301" lon="7.14329">
        <ele>711.60004</ele>
        <time>2025-03-27T15:26:57Z</time>
      </trkpt>
      <trkpt lat="48.45305" lon="7.14334">
        <ele>711.60004</ele>
        <time>2025-03-27T15:27:00Z</time>
      </trkpt>
      <trkpt lat="48.45309" lon="7.14338">
        <ele>711.60004</ele>
        <time>2025-03-27T15:27:05Z</time>
      </trkpt>
      <trkpt lat="48.45312" lon="7.14343">
        <ele>711.60004</ele>
        <time>2025-03-27T15:27:12Z</time>
      </trkpt>
      <trkpt lat="48.45316" lon="7.14348">
        <ele>711.60004</ele>
        <time>2025-03-27T15:27:17Z</time>
      </trkpt>
      <trkpt lat="48.45321" lon="7.14354">
        <ele>709.5682</ele>
        <time>2025-03-27T15:27:22Z</time>
      </trkpt>
      <trkpt lat="48.45324" lon="7.14359">
        <ele>707.5364</ele>
        <time>2025-03-27T15:27:28Z</time>
      </trkpt>
      <trkpt lat="48.45328" lon="7.14364">
        <ele>705.5045</ele>
        <time>2025-03-27T15:27:33Z</time>
      </trkpt>
      <trkpt lat="48.45332" lon="7.1437">
        <ele>703.4727</ele>
        <time>2025-03-27T15:27:39Z</time>
      </trkpt>
      <trkpt lat="48.45335" lon="7.14375">
        <ele>701.44086</ele>
        <time>2025-03-27T15:27:43Z</time>
      </trkpt>
      <trkpt lat="48.45338" lon="7.1438">
        <ele>701.44086</ele>
        <time>2025-03-27T15:27:48Z</time>
      </trkpt>
      <trkpt lat="48.45342" lon="7.14385">
        <ele>701.44086</ele>
        <time>2025-03-27T15:27:53Z</time>
      </trkpt>
      <trkpt lat="48.45345" lon="7.1439">
        <ele>701.44086</ele>
        <time>2025-03-27T15:27:58Z</time>
      </trkpt>
      <trkpt lat="48.45349" lon="7.14396">
        <ele>701.44086</ele>
        <time>2025-03-27T15:28:04Z</time>
      </trkpt>
      <trkpt lat="48.45353" lon="7.14402">
        <ele>701.44086</ele>
        <time>2025-03-27T15:28:10Z</time>
      </trkpt>
      <trkpt lat="48.45357" lon="7.14408">
        <ele>701.44086</ele>
        <time>2025-03-27T15:28:17Z</time>
      </trkpt>
      <trkpt lat="48.4536" lon="7.14413">
        <ele>701.44086</ele>
        <time>2025-03-27T15:28:22Z</time>
      </trkpt>
      <trkpt lat="48.45364" lon="7.14418">
        <ele>701.44086</ele>
        <time>2025-03-27T15:28:28Z</time>
      </trkpt>
      <trkpt lat="48.45367" lon="7.14424">
        <ele>699.36597</ele>
        <time>2025-03-27T15:28:35Z</time>
      </trkpt>
      <trkpt lat="48.45371" lon="7.14428">
        <ele>697.29114</ele>
        <time>2025-03-27T15:28:41Z</time>
      </trkpt>
      <trkpt lat="48.45374" lon="7.14433">
        <ele>695.21625</ele>
        <time>2025-03-27T15:28:47Z</time>
      </trkpt>
      <trkpt lat="48.45378" lon="7.1444">
        <ele>693.1414</ele>
        <time>2025-03-27T15:28:53Z</time>
      </trkpt>
      <trkpt lat="48.4538" lon="7.14448">
        <ele>691.0665</ele>
        <time>2025-03-27T15:28:59Z</time>
      </trkpt>
      <trkpt lat="48.45382" lon="7.14454">
        <ele>691.0665</ele>
        <time>2025-03-27T15:29:04Z</time>
      </trkpt>
      <trkpt lat="48.45384" lon="7.14461">
        <ele>691.0665</ele>
        <time>2025-03-27T15:29:16Z</time>
      </trkpt>
      <trkpt lat="48.45386" lon="7.14467">
        <ele>691.0665</ele>
        <time>2025-03-27T15:29:21Z</time>
      </trkpt>
      <trkpt lat="48.45388" lon="7.14474">
        <ele>691.0665</ele>
        <time>2025-03-27T15:29:26Z</time>
      </trkpt>
      <trkpt lat="48.45391" lon="7.14481">
        <ele>691.0665</ele>
        <time>2025-03-27T15:29:31Z</time>
      </trkpt>
      <trkpt lat="48.45394" lon="7.14488">
        <ele>691.0665</ele>
        <time>2025-03-27T15:29:38Z</time>
      </trkpt>
      <trkpt lat="48.45396" lon="7.14495">
        <ele>691.0665</ele>
        <time>2025-03-27T15:29:44Z</time>
      </trkpt>
      <trkpt lat="48.45399" lon="7.14501">
        <ele>691.0665</ele>
        <time>2025-03-27T15:29:49Z</time>
      </trkpt>
      <trkpt lat="48.45402" lon="7.14506">
        <ele>691.0665</ele>
        <time>2025-03-27T15:29:54Z</time>
      </trkpt>
      <trkpt lat="48.45406" lon="7.14511">
        <ele>691.0665</ele>
        <time>2025-03-27T15:29:59Z</time>
      </trkpt>
      <trkpt lat="48.45409" lon="7.14516">
        <ele>688.95135</ele>
        <time>2025-03-27T15:30:06Z</time>
      </trkpt>
      <trkpt lat="48.45413" lon="7.14522">
        <ele>686.8362</ele>
        <time>2025-03-27T15:30:11Z</time>
      </trkpt>
      <trkpt lat="48.45417" lon="7.14528">
        <ele>684.72095</ele>
        <time>2025-03-27T15:30:17Z</time>
      </trkpt>
      <trkpt lat="48.4542" lon="7.14534">
        <ele>682.6058</ele>
        <time>2025-03-27T15:30:24Z</time>
      </trkpt>
      <trkpt lat="48.45423" lon="7.1454">
        <ele>680.4906</ele>
        <time>2025-03-27T15:30:30Z</time>
      </trkpt>
      <trkpt lat="48.45426" lon="7.14546">
        <ele>680.4906</ele>
        <time>2025-03-27T15:30:36Z</time>
      </trkpt>
      <trkpt lat="48.45429" lon="7.14552">
        <ele>680.4906</ele>
        <time>2025-03-27T15:30:42Z</time>
      </trkpt>
      <trkpt lat="48.45432" lon="7.14558">
        <ele>680.4906</ele>
        <time>2025-03-27T15:30:47Z</time>
      </trkpt>
      <trkpt lat="48.45435" lon="7.14564">
        <ele>680.4906</ele>
        <time>2025-03-27T15:30:52Z</time>
      </trkpt>
      <trkpt lat="48.45438" lon="7.14569">
        <ele>680.4906</ele>
        <time>2025-03-27T15:30:59Z</time>
      </trkpt>
      <trkpt lat="48.45441" lon="7.14576">
        <ele>680.4906</ele>
        <time>2025-03-27T15:31:06Z</time>
      </trkpt>
      <trkpt lat="48.45444" lon="7.14583">
        <ele>680.4906</ele>
        <time>2025-03-27T15:31:13Z</time>
      </trkpt>
      <trkpt lat="48.45446" lon="7.1459">
        <ele>680.4906</ele>
        <time>2025-03-27T15:31:19Z</time>
      </trkpt>
      <trkpt lat="48.45449" lon="7.14597">
        <ele>678.2436</ele>
        <time>2025-03-27T15:31:25Z</time>
      </trkpt>
      <trkpt lat="48.45451" lon="7.14603">
        <ele>675.9966</ele>
        <time>2025-03-27T15:31:31Z</time>
      </trkpt>
      <trkpt lat="48.45453" lon="7.1461">
        <ele>673.74963</ele>
        <time>2025-03-27T15:31:37Z</time>
      </trkpt>
      <trkpt lat="48.45455" lon="7.14617">
        <ele>671.5026</ele>
        <time>2025-03-27T15:31:43Z</time>
      </trkpt>
      <trkpt lat="48.45458" lon="7.14625">
        <ele>669.2556</ele>
        <time>2025-03-27T15:31:49Z</time>
      </trkpt>
      <trkpt lat="48.45459" lon="7.14633">
        <ele>669.2556</ele>
        <time>2025-03-27T15:31:56Z</time>
      </trkpt>
      <trkpt lat="48.45462" lon="7.14639">
        <ele>669.2556</ele>
        <time>2025-03-27T15:32:01Z</time>
      </trkpt>
      <trkpt lat="48.45465" lon="7.14645">
        <ele>669.2556</ele>
        <time>2025-03-27T15:32:07Z</time>
      </trkpt>
      <trkpt lat="48.45467" lon="7.14651">
        <ele>669.2556</ele>
        <time>2025-03-27T15:32:29Z</time>
      </trkpt>
      <trkpt lat="48.45465" lon="7.14657">
        <ele>669.2556</ele>
        <time>2025-03-27T15:33:14Z</time>
      </trkpt>
      <trkpt lat="48.45468" lon="7.14663">
        <ele>669.2556</ele>
        <time>2025-03-27T15:33:24Z</time>
      </trkpt>
      <trkpt lat="48.4547" lon="7.14669">
        <ele>669.2556</ele>
        <time>2025-03-27T15:33:53Z</time>
      </trkpt>
      <trkpt lat="48.45469" lon="7.14676">
        <ele>669.2556</ele>
        <time>2025-03-27T15:34:02Z</time>
      </trkpt>
      <trkpt lat="48.45474" lon="7.1468">
        <ele>669.2556</ele>
        <time>2025-03-27T15:34:10Z</time>
      </trkpt>
      <trkpt lat="48.45471" lon="7.14687">
        <ele>669.2556</ele>
        <time>2025-03-27T15:34:18Z</time>
      </trkpt>
      <trkpt lat="48.45475" lon="7.14692">
        <ele>667.1235</ele>
        <time>2025-03-27T15:34:24Z</time>
      </trkpt>
      <trkpt lat="48.45475" lon="7.14699">
        <ele>664.99133</ele>
        <time>2025-03-27T15:34:32Z</time>
      </trkpt>
      <trkpt lat="48.45477" lon="7.14707">
        <ele>662.85913</ele>
        <time>2025-03-27T15:34:40Z</time>
      </trkpt>
      <trkpt lat="48.45477" lon="7.14714">
        <ele>660.727</ele>
        <time>2025-03-27T15:34:46Z</time>
      </trkpt>
      <trkpt lat="48.45479" lon="7.14721">
        <ele>658.59485</ele>
        <time>2025-03-27T15:34:52Z</time>
      </trkpt>
      <trkpt lat="48.45481" lon="7.14729">
        <ele>658.59485</ele>
        <time>2025-03-27T15:34:58Z</time>
      </trkpt>
      <trkpt lat="48.45483" lon="7.14735">
        <ele>658.59485</ele>
        <time>2025-03-27T15:35:04Z</time>
      </trkpt>
      <trkpt lat="48.45485" lon="7.14741">
        <ele>658.59485</ele>
        <time>2025-03-27T15:35:09Z</time>
      </trkpt>
      <trkpt lat="48.45488" lon="7.14747">
        <ele>658.59485</ele>
        <time>2025-03-27T15:35:14Z</time>
      </trkpt>
      <trkpt lat="48.45492" lon="7.14754">
        <ele>658.59485</ele>
        <time>2025-03-27T15:35:21Z</time>
      </trkpt>
      <trkpt lat="48.45496" lon="7.14758">
        <ele>658.59485</ele>
        <time>2025-03-27T15:35:25Z</time>
      </trkpt>
      <trkpt lat="48.455" lon="7.14762">
        <ele>658.59485</ele>
        <time>2025-03-27T15:35:36Z</time>
      </trkpt>
      <trkpt lat="48.45504" lon="7.14764">
        <ele>658.59485</ele>
        <time>2025-03-27T15:35:41Z</time>
      </trkpt>
      <trkpt lat="48.45509" lon="7.14767">
        <ele>658.59485</ele>
        <time>2025-03-27T15:35:46Z</time>
      </trkpt>
      <trkpt lat="48.45514" lon="7.14769">
        <ele>658.59485</ele>
        <time>2025-03-27T15:35:56Z</time>
      </trkpt>
      <trkpt lat="48.45519" lon="7.14772">
        <ele>658.59485</ele>
        <time>2025-03-27T15:36:03Z</time>
      </trkpt>
      <trkpt lat="48.45523" lon="7.14775">
        <ele>658.59485</ele>
        <time>2025-03-27T15:36:07Z</time>
      </trkpt>
      <trkpt lat="48.45527" lon="7.14778">
        <ele>658.59485</ele>
        <time>2025-03-27T15:36:12Z</time>
      </trkpt>
      <trkpt lat="48.45533" lon="7.14777">
        <ele>658.59485</ele>
        <time>2025-03-27T15:36:18Z</time>
      </trkpt>
      <trkpt lat="48.45538" lon="7.14779">
        <ele>658.59485</ele>
        <time>2025-03-27T15:36:23Z</time>
      </trkpt>
      <trkpt lat="48.45538" lon="7.14786">
        <ele>656.33527</ele>
        <time>2025-03-27T15:36:42Z</time>
      </trkpt>
      <trkpt lat="48.45539" lon="7.14793">
        <ele>654.07574</ele>
        <time>2025-03-27T15:37:00Z</time>
      </trkpt>
      <trkpt lat="48.45541" lon="7.14801">
        <ele>651.81616</ele>
        <time>2025-03-27T15:38:23Z</time>
      </trkpt>
      <trkpt lat="48.45538" lon="7.14806">
        <ele>649.55664</ele>
        <time>2025-03-27T15:38:29Z</time>
      </trkpt>
      <trkpt lat="48.45535" lon="7.1481">
        <ele>647.29706</ele>
        <time>2025-03-27T15:38:33Z</time>
      </trkpt>
      <trkpt lat="48.45531" lon="7.14815">
        <ele>647.29706</ele>
        <time>2025-03-27T15:38:37Z</time>
      </trkpt>
      <trkpt lat="48.45526" lon="7.14818">
        <ele>647.29706</ele>
        <time>2025-03-27T15:38:43Z</time>
      </trkpt>
      <trkpt lat="48.45522" lon="7.14824">
        <ele>647.29706</ele>
        <time>2025-03-27T15:38:49Z</time>
      </trkpt>
      <trkpt lat="48.45518" lon="7.14829">
        <ele>647.29706</ele>
        <time>2025-03-27T15:38:53Z</time>
      </trkpt>
      <trkpt lat="48.45513" lon="7.14831">
        <ele>647.29706</ele>
        <time>2025-03-27T15:38:57Z</time>
      </trkpt>
      <trkpt lat="48.45509" lon="7.14833">
        <ele>647.29706</ele>
        <time>2025-03-27T15:39:01Z</time>
      </trkpt>
      <trkpt lat="48.45511" lon="7.14839">
        <ele>645.2019</ele>
        <time>2025-03-27T15:39:07Z</time>
      </trkpt>
      <trkpt lat="48.45515" lon="7.14841">
        <ele>643.1068</ele>
        <time>2025-03-27T15:39:12Z</time>
      </trkpt>
      <trkpt lat="48.4552" lon="7.14843">
        <ele>641.01166</ele>
        <time>2025-03-27T15:39:16Z</time>
      </trkpt>
      <trkpt lat="48.45524" lon="7.14841">
        <ele>638.91656</ele>
        <time>2025-03-27T15:39:21Z</time>
      </trkpt>
      <trkpt lat="48.45529" lon="7.14841">
        <ele>636.8214</ele>
        <time>2025-03-27T15:39:27Z</time>
      </trkpt>
      <trkpt lat="48.45533" lon="7.14842">
        <ele>636.8214</ele>
        <time>2025-03-27T15:39:33Z</time>
      </trkpt>
      <trkpt lat="48.45537" lon="7.14847">
        <ele>636.8214</ele>
        <time>2025-03-27T15:39:36Z</time>
      </trkpt>
      <trkpt lat="48.45541" lon="7.14843">
        <ele>636.8214</ele>
        <time>2025-03-27T15:39:48Z</time>
      </trkpt>
      <trkpt lat="48.45538" lon="7.14838">
        <ele>636.8214</ele>
        <time>2025-03-27T15:40:06Z</time>
      </trkpt>
      <trkpt lat="48.4554" lon="7.14845">
        <ele>636.8214</ele>
        <time>2025-03-27T15:40:43Z</time>
      </trkpt>
      <trkpt lat="48.45544" lon="7.14849">
        <ele>636.8214</ele>
        <time>2025-03-27T15:40:51Z</time>
      </trkpt>
      <trkpt lat="48.45549" lon="7.14851">
        <ele>636.8214</ele>
        <time>2025-03-27T15:40:56Z</time>
      </trkpt>
      <trkpt lat="48.45552" lon="7.14856">
        <ele>636.8214</ele>
        <time>2025-03-27T15:41:03Z</time>
      </trkpt>
      <trkpt lat="48.45557" lon="7.14859">
        <ele>636.8214</ele>
        <time>2025-03-27T15:41:08Z</time>
      </trkpt>
      <trkpt lat="48.45561" lon="7.14863">
        <ele>636.8214</ele>
        <time>2025-03-27T15:41:13Z</time>
      </trkpt>
      <trkpt lat="48.45567" lon="7.14865">
        <ele>636.8214</ele>
        <time>2025-03-27T15:41:36Z</time>
      </trkpt>
      <trkpt lat="48.45572" lon="7.1487">
        <ele>636.8214</ele>
        <time>2025-03-27T15:41:55Z</time>
      </trkpt>
      <trkpt lat="48.45575" lon="7.14875">
        <ele>636.8214</ele>
        <time>2025-03-27T15:42:00Z</time>
      </trkpt>
      <trkpt lat="48.45579" lon="7.1488">
        <ele>636.8214</ele>
        <time>2025-03-27T15:42:05Z</time>
      </trkpt>
      <trkpt lat="48.45583" lon="7.14885">
        <ele>636.8214</ele>
        <time>2025-03-27T15:42:09Z</time>
      </trkpt>
      <trkpt lat="48.45588" lon="7.14888">
        <ele>636.8214</ele>
        <time>2025-03-27T15:42:14Z</time>
      </trkpt>
      <trkpt lat="48.45593" lon="7.14892">
        <ele>636.8214</ele>
        <time>2025-03-27T15:42:19Z</time>
      </trkpt>
      <trkpt lat="48.45596" lon="7.14898">
        <ele>636.8214</ele>
        <time>2025-03-27T15:42:25Z</time>
      </trkpt>
      <trkpt lat="48.45599" lon="7.14903">
        <ele>636.8214</ele>
        <time>2025-03-27T15:42:29Z</time>
      </trkpt>
      <trkpt lat="48.45601" lon="7.14909">
        <ele>636.8214</ele>
        <time>2025-03-27T15:42:34Z</time>
      </trkpt>
      <trkpt lat="48.45603" lon="7.14916">
        <ele>636.8214</ele>
        <time>2025-03-27T15:42:39Z</time>
      </trkpt>
      <trkpt lat="48.45604" lon="7.14923">
        <ele>636.8214</ele>
        <time>2025-03-27T15:42:44Z</time>
      </trkpt>
      <trkpt lat="48.45605" lon="7.1493">
        <ele>636.8214</ele>
        <time>2025-03-27T15:42:49Z</time>
      </trkpt>
      <trkpt lat="48.45607" lon="7.14936">
        <ele>636.8214</ele>
        <time>2025-03-27T15:42:55Z</time>
      </trkpt>
      <trkpt lat="48.4561" lon="7.14944">
        <ele>636.8214</ele>
        <time>2025-03-27T15:43:01Z</time>
      </trkpt>
      <trkpt lat="48.4561" lon="7.14952">
        <ele>636.8214</ele>
        <time>2025-03-27T15:43:24Z</time>
      </trkpt>
      <trkpt lat="48.4561" lon="7.1496">
        <ele>636.8214</ele>
        <time>2025-03-27T15:43:29Z</time>
      </trkpt>
      <trkpt lat="48.45614" lon="7.14966">
        <ele>636.8214</ele>
        <time>2025-03-27T15:43:35Z</time>
      </trkpt>
      <trkpt lat="48.45615" lon="7.14974">
        <ele>636.8214</ele>
        <time>2025-03-27T15:43:40Z</time>
      </trkpt>
      <trkpt lat="48.45617" lon="7.1498">
        <ele>636.8214</ele>
        <time>2025-03-27T15:43:44Z</time>
      </trkpt>
      <trkpt lat="48.45622" lon="7.14983">
        <ele>636.8214</ele>
        <time>2025-03-27T15:43:54Z</time>
      </trkpt>
      <trkpt lat="48.45626" lon="7.14979">
        <ele>636.8214</ele>
        <time>2025-03-27T15:44:08Z</time>
      </trkpt>
      <trkpt lat="48.45631" lon="7.14977">
        <ele>636.8214</ele>
        <time>2025-03-27T15:44:11Z</time>
      </trkpt>
      <trkpt lat="48.45637" lon="7.14977">
        <ele>636.8214</ele>
        <time>2025-03-27T15:44:13Z</time>
      </trkpt>
      <trkpt lat="48.45642" lon="7.14976">
        <ele>636.8214</ele>
        <time>2025-03-27T15:44:16Z</time>
      </trkpt>
      <trkpt lat="48.45647" lon="7.14974">
        <ele>636.8214</ele>
        <time>2025-03-27T15:44:20Z</time>
      </trkpt>
      <trkpt lat="48.45652" lon="7.14974">
        <ele>636.8214</ele>
        <time>2025-03-27T15:44:25Z</time>
      </trkpt>
      <trkpt lat="48.45657" lon="7.14972">
        <ele>636.8214</ele>
        <time>2025-03-27T15:44:30Z</time>
      </trkpt>
      <trkpt lat="48.45662" lon="7.14972">
        <ele>636.8214</ele>
        <time>2025-03-27T15:44:36Z</time>
      </trkpt>
      <trkpt lat="48.45667" lon="7.14972">
        <ele>636.8214</ele>
        <time>2025-03-27T15:44:42Z</time>
      </trkpt>
      <trkpt lat="48.45672" lon="7.14972">
        <ele>636.8214</ele>
        <time>2025-03-27T15:44:46Z</time>
      </trkpt>
      <trkpt lat="48.45676" lon="7.1497">
        <ele>636.8214</ele>
        <time>2025-03-27T15:44:51Z</time>
      </trkpt>
      <trkpt lat="48.45682" lon="7.14969">
        <ele>636.8214</ele>
        <time>2025-03-27T15:44:56Z</time>
      </trkpt>
      <trkpt lat="48.45687" lon="7.14968">
        <ele>636.8214</ele>
        <time>2025-03-27T15:45:01Z</time>
      </trkpt>
      <trkpt lat="48.45692" lon="7.14967">
        <ele>636.8214</ele>
        <time>2025-03-27T15:45:06Z</time>
      </trkpt>
      <trkpt lat="48.45697" lon="7.14966">
        <ele>636.8214</ele>
        <time>2025-03-27T15:45:11Z</time>
      </trkpt>
      <trkpt lat="48.45701" lon="7.14963">
        <ele>636.8214</ele>
        <time>2025-03-27T15:45:19Z</time>
      </trkpt>
      <trkpt lat="48.45697" lon="7.14959">
        <ele>636.8214</ele>
        <time>2025-03-27T15:46:00Z</time>
      </trkpt>
      <trkpt lat="48.45699" lon="7.14966">
        <ele>636.8214</ele>
        <time>2025-03-27T15:46:11Z</time>
      </trkpt>
      <trkpt lat="48.45702" lon="7.1496">
        <ele>636.8214</ele>
        <time>2025-03-27T15:46:16Z</time>
      </trkpt>
      <trkpt lat="48.45701" lon="7.14952">
        <ele>636.8214</ele>
        <time>2025-03-27T15:46:35Z</time>
      </trkpt>
      <trkpt lat="48.45696" lon="7.1495">
        <ele>636.8214</ele>
        <time>2025-03-27T15:46:39Z</time>
      </trkpt>
      <trkpt lat="48.45697" lon="7.14957">
        <ele>636.8214</ele>
        <time>2025-03-27T15:47:21Z</time>
      </trkpt>
      <trkpt lat="48.45699" lon="7.14951">
        <ele>636.8214</ele>
        <time>2025-03-27T15:47:28Z</time>
      </trkpt>
      <trkpt lat="48.457" lon="7.14958">
        <ele>636.8214</ele>
        <time>2025-03-27T15:47:53Z</time>
      </trkpt>
      <trkpt lat="48.45701" lon="7.14966">
        <ele>636.8214</ele>
        <time>2025-03-27T15:48:00Z</time>
      </trkpt>
      <trkpt lat="48.45697" lon="7.14962">
        <ele>636.8214</ele>
        <time>2025-03-27T15:48:44Z</time>
      </trkpt>
      <trkpt lat="48.45692" lon="7.14964">
        <ele>636.8214</ele>
        <time>2025-03-27T15:49:03Z</time>
      </trkpt>
      <trkpt lat="48.45688" lon="7.14968">
        <ele>636.8214</ele>
        <time>2025-03-27T15:49:09Z</time>
      </trkpt>
      <trkpt lat="48.45684" lon="7.14973">
        <ele>636.8214</ele>
        <time>2025-03-27T15:49:15Z</time>
      </trkpt>
      <trkpt lat="48.4568" lon="7.14972">
        <ele>636.8214</ele>
        <time>2025-03-27T15:49:20Z</time>
      </trkpt>
      <trkpt lat="48.45675" lon="7.14971">
        <ele>636.8214</ele>
        <time>2025-03-27T15:49:27Z</time>
      </trkpt>
      <trkpt lat="48.4567" lon="7.14971">
        <ele>636.8214</ele>
        <time>2025-03-27T15:49:33Z</time>
      </trkpt>
      <trkpt lat="48.45664" lon="7.14971">
        <ele>636.8214</ele>
        <time>2025-03-27T15:49:38Z</time>
      </trkpt>
      <trkpt lat="48.45659" lon="7.14971">
        <ele>636.8214</ele>
        <time>2025-03-27T15:49:43Z</time>
      </trkpt>
      <trkpt lat="48.45654" lon="7.14972">
        <ele>636.8214</ele>
        <time>2025-03-27T15:49:48Z</time>
      </trkpt>
      <trkpt lat="48.45651" lon="7.14975">
        <ele>636.8214</ele>
        <time>2025-03-27T15:49:55Z</time>
      </trkpt>
      <trkpt lat="48.45646" lon="7.14975">
        <ele>636.8214</ele>
        <time>2025-03-27T15:50:00Z</time>
      </trkpt>
      <trkpt lat="48.45641" lon="7.14976">
        <ele>636.8214</ele>
        <time>2025-03-27T15:50:05Z</time>
      </trkpt>
      <trkpt lat="48.45636" lon="7.14977">
        <ele>636.8214</ele>
        <time>2025-03-27T15:50:09Z</time>
      </trkpt>
      <trkpt lat="48.45631" lon="7.14976">
        <ele>636.8214</ele>
        <time>2025-03-27T15:50:13Z</time>
      </trkpt>
      <trkpt lat="48.45625" lon="7.14977">
        <ele>636.8214</ele>
        <time>2025-03-27T15:50:18Z</time>
      </trkpt>
      <trkpt lat="48.4562" lon="7.14978">
        <ele>636.8214</ele>
        <time>2025-03-27T15:50:23Z</time>
      </trkpt>
      <trkpt lat="48.45616" lon="7.14975">
        <ele>636.8214</ele>
        <time>2025-03-27T15:50:29Z</time>
      </trkpt>
      <trkpt lat="48.45615" lon="7.14968">
        <ele>636.8214</ele>
        <time>2025-03-27T15:50:35Z</time>
      </trkpt>
      <trkpt lat="48.45614" lon="7.14961">
        <ele>636.8214</ele>
        <time>2025-03-27T15:50:39Z</time>
      </trkpt>
      <trkpt lat="48.45612" lon="7.14954">
        <ele>636.8214</ele>
        <time>2025-03-27T15:50:44Z</time>
      </trkpt>
      <trkpt lat="48.45611" lon="7.14947">
        <ele>636.8214</ele>
        <time>2025-03-27T15:50:49Z</time>
      </trkpt>
      <trkpt lat="48.45609" lon="7.1494">
        <ele>636.8214</ele>
        <time>2025-03-27T15:50:54Z</time>
      </trkpt>
      <trkpt lat="48.45607" lon="7.14934">
        <ele>636.8214</ele>
        <time>2025-03-27T15:50:59Z</time>
      </trkpt>
      <trkpt lat="48.45606" lon="7.14926">
        <ele>636.8214</ele>
        <time>2025-03-27T15:51:04Z</time>
      </trkpt>
      <trkpt lat="48.45605" lon="7.14918">
        <ele>636.8214</ele>
        <time>2025-03-27T15:51:10Z</time>
      </trkpt>
      <trkpt lat="48.45603" lon="7.14911">
        <ele>636.8214</ele>
        <time>2025-03-27T15:51:17Z</time>
      </trkpt>
      <trkpt lat="48.45601" lon="7.14904">
        <ele>636.8214</ele>
        <time>2025-03-27T15:51:24Z</time>
      </trkpt>
      <trkpt lat="48.45599" lon="7.14897">
        <ele>636.8214</ele>
        <time>2025-03-27T15:51:30Z</time>
      </trkpt>
      <trkpt lat="48.45595" lon="7.14893">
        <ele>636.8214</ele>
        <time>2025-03-27T15:51:34Z</time>
      </trkpt>
      <trkpt lat="48.45592" lon="7.14886">
        <ele>636.8214</ele>
        <time>2025-03-27T15:51:39Z</time>
      </trkpt>
      <trkpt lat="48.45587" lon="7.14883">
        <ele>636.8214</ele>
        <time>2025-03-27T15:51:44Z</time>
      </trkpt>
      <trkpt lat="48.45583" lon="7.1488">
        <ele>636.8214</ele>
        <time>2025-03-27T15:51:49Z</time>
      </trkpt>
      <trkpt lat="48.45578" lon="7.14877">
        <ele>636.8214</ele>
        <time>2025-03-27T15:51:58Z</time>
      </trkpt>
    </trkseg>
  </trk>
</gpx>